OOEHY CYEG-CYXY
Flight info
| Callsign | OOEHY |
|---|---|
| Flight time | N/A |
| Altitude | 9000 |
| Route | YZU DCT 57N122W 59N129W DCT KEMGI |
| Aircraft | C172/L-SFG/C |
Departure
| Time | 2026-04-27 12:04 |
|---|---|
| Airport | Edmonton International Airport (CYEG) |
Arrival
| Time | N/A |
|---|---|
| Airport | Whitehorse / Erik Nielsen International Airport (CYXY) |
| Time | Latitude | Longitude | Altitude | Speed | Heading |
|---|---|---|---|---|---|
| 2026-04-27 11:59 | 53.31566 | -113.58116 | 2323 ft | 0 kts | 122° |
| 2026-04-27 12:00 | 53.31548 | -113.58111 | 2323 ft | 4 kts | 234° |
| 2026-04-27 12:00 | 53.31566 | -113.58200 | 2321 ft | 11 kts | 294° |
| 2026-04-27 12:00 | 53.31609 | -113.58302 | 2318 ft | 9 kts | 297° |
| 2026-04-27 12:01 | 53.31585 | -113.58390 | 2315 ft | 10 kts | 221° |
| 2026-04-27 12:01 | 53.31509 | -113.58487 | 2313 ft | 13 kts | 205° |
| 2026-04-27 12:01 | 53.31484 | -113.58515 | 2313 ft | 3 kts | 336° |
| 2026-04-27 12:01 | 53.31531 | -113.58459 | 2314 ft | 12 kts | 40° |
| 2026-04-27 12:02 | 53.31616 | -113.58439 | 2313 ft | 14 kts | 355° |
| 2026-04-27 12:02 | 53.31724 | -113.58461 | 2311 ft | 13 kts | 335° |
| 2026-04-27 12:02 | 53.31809 | -113.58501 | 2309 ft | 11 kts | 343° |
| 2026-04-27 12:02 | 53.31897 | -113.58443 | 2310 ft | 27 kts | 34° |
| 2026-04-27 12:03 | 53.32170 | -113.58120 | 2315 ft | 64 kts | 29° |
| 2026-04-27 12:03 | 53.32578 | -113.57712 | 2384 ft | 72 kts | 29° |
| 2026-04-27 12:03 | 53.32996 | -113.57356 | 2527 ft | 69 kts | 30° |
| 2026-04-27 12:03 | 53.33439 | -113.56919 | 2581 ft | 79 kts | 32° |
| 2026-04-27 12:04 | 53.33918 | -113.56441 | 2696 ft | 79 kts | 32° |
| 2026-04-27 12:04 | 53.34387 | -113.55971 | 2811 ft | 78 kts | 33° |
| 2026-04-27 12:04 | 53.34875 | -113.55546 | 2922 ft | 80 kts | 14° |
| 2026-04-27 12:04 | 53.35263 | -113.55563 | 2991 ft | 81 kts | 342° |
| 2026-04-27 12:05 | 53.35609 | -113.55914 | 3072 ft | 79 kts | 313° |
| 2026-04-27 12:05 | 53.35973 | -113.56602 | 3178 ft | 79 kts | 304° |
| 2026-04-27 12:05 | 53.36305 | -113.57346 | 3288 ft | 79 kts | 301° |
| 2026-04-27 12:05 | 53.36623 | -113.58109 | 3389 ft | 79 kts | 300° |
| 2026-04-27 12:06 | 53.36929 | -113.58871 | 3495 ft | 79 kts | 299° |
| 2026-04-27 12:06 | 53.37231 | -113.59652 | 3593 ft | 79 kts | 298° |
| 2026-04-27 12:06 | 53.37523 | -113.60422 | 3695 ft | 79 kts | 298° |
| 2026-04-27 12:06 | 53.37820 | -113.61216 | 3783 ft | 80 kts | 298° |
| 2026-04-27 12:07 | 53.38112 | -113.61996 | 3879 ft | 80 kts | 298° |
| 2026-04-27 12:07 | 53.38407 | -113.62798 | 3963 ft | 81 kts | 295° |
| 2026-04-27 12:07 | 53.38697 | -113.63604 | 4048 ft | 81 kts | 297° |
| 2026-04-27 12:07 | 53.38983 | -113.64398 | 4141 ft | 80 kts | 297° |
| 2026-04-27 12:08 | 53.39273 | -113.65195 | 4223 ft | 80 kts | 295° |
| 2026-04-27 12:08 | 53.39564 | -113.65986 | 4312 ft | 80 kts | 298° |
| 2026-04-27 12:08 | 53.39856 | -113.66781 | 4398 ft | 79 kts | 295° |
| 2026-04-27 12:08 | 53.39937 | -113.67002 | 4411 ft | 80 kts | 294° |
| 2026-04-27 12:09 | 53.40221 | -113.67782 | 4502 ft | 79 kts | 296° |
| 2026-04-27 12:09 | 53.40509 | -113.68573 | 4583 ft | 78 kts | 294° |
| 2026-04-27 12:09 | 53.40794 | -113.69357 | 4654 ft | 81 kts | 297° |
| 2026-04-27 12:09 | 53.41085 | -113.70176 | 4772 ft | 80 kts | 294° |
| 2026-04-27 12:10 | 53.41373 | -113.70974 | 4878 ft | 82 kts | 292° |
| 2026-04-27 12:10 | 53.41656 | -113.71771 | 5014 ft | 79 kts | 297° |
| 2026-04-27 12:10 | 53.41943 | -113.72579 | 5115 ft | 79 kts | 295° |
| 2026-04-27 12:10 | 53.42226 | -113.73364 | 5230 ft | 79 kts | 293° |
| 2026-04-27 12:11 | 53.42509 | -113.74141 | 5336 ft | 79 kts | 292° |
| 2026-04-27 12:11 | 53.42791 | -113.74926 | 5438 ft | 79 kts | 291° |
| 2026-04-27 12:11 | 53.43074 | -113.75711 | 5544 ft | 78 kts | 298° |
| 2026-04-27 12:11 | 53.43361 | -113.76508 | 5638 ft | 79 kts | 292° |
| 2026-04-27 12:12 | 53.43650 | -113.77306 | 5743 ft | 78 kts | 292° |
| 2026-04-27 12:12 | 53.43932 | -113.78082 | 5840 ft | 78 kts | 290° |
| 2026-04-27 12:12 | 53.44221 | -113.78867 | 5936 ft | 78 kts | 292° |
| 2026-04-27 12:12 | 53.44503 | -113.79639 | 6027 ft | 78 kts | 292° |
| 2026-04-27 12:13 | 53.44788 | -113.80428 | 6118 ft | 79 kts | 292° |
| 2026-04-27 12:13 | 53.45073 | -113.81203 | 6214 ft | 79 kts | 296° |
| 2026-04-27 12:13 | 53.45364 | -113.81986 | 6312 ft | 79 kts | 296° |
| 2026-04-27 12:13 | 53.45652 | -113.82779 | 6401 ft | 79 kts | 296° |
| 2026-04-27 12:14 | 53.45937 | -113.83575 | 6497 ft | 79 kts | 297° |
| 2026-04-27 12:14 | 53.46037 | -113.83837 | 6539 ft | 78 kts | 296° |
| 2026-04-27 12:14 | 53.46329 | -113.84637 | 6602 ft | 81 kts | 295° |
| 2026-04-27 12:14 | 53.46618 | -113.85429 | 6692 ft | 81 kts | 292° |
| 2026-04-27 12:15 | 53.46904 | -113.86217 | 6788 ft | 79 kts | 295° |
| 2026-04-27 12:15 | 53.47194 | -113.87004 | 6882 ft | 79 kts | 291° |
| 2026-04-27 12:15 | 53.47478 | -113.87804 | 6953 ft | 79 kts | 297° |
| 2026-04-27 12:15 | 53.47765 | -113.88591 | 7040 ft | 78 kts | 293° |
| 2026-04-27 12:16 | 53.48052 | -113.89387 | 7108 ft | 79 kts | 295° |
| 2026-04-27 12:16 | 53.48339 | -113.90178 | 7182 ft | 80 kts | 292° |
| 2026-04-27 12:16 | 53.48623 | -113.90971 | 7266 ft | 79 kts | 295° |
| 2026-04-27 12:16 | 53.48912 | -113.91761 | 7330 ft | 80 kts | 292° |
| 2026-04-27 12:17 | 53.49199 | -113.92553 | 7414 ft | 79 kts | 297° |
| 2026-04-27 12:17 | 53.49493 | -113.93347 | 7482 ft | 80 kts | 298° |
| 2026-04-27 12:17 | 53.49789 | -113.94162 | 7538 ft | 82 kts | 292° |
| 2026-04-27 12:17 | 53.50086 | -113.94983 | 7602 ft | 83 kts | 293° |
| 2026-04-27 12:18 | 53.50382 | -113.95823 | 7670 ft | 83 kts | 298° |
| 2026-04-27 12:18 | 53.50684 | -113.96671 | 7724 ft | 85 kts | 296° |
| 2026-04-27 12:18 | 53.50991 | -113.97504 | 7799 ft | 85 kts | 297° |
| 2026-04-27 12:18 | 53.51297 | -113.98350 | 7867 ft | 85 kts | 294° |
| 2026-04-27 12:19 | 53.51597 | -113.99207 | 7931 ft | 85 kts | 294° |
| 2026-04-27 12:19 | 53.51903 | -114.00073 | 7996 ft | 85 kts | 294° |
| 2026-04-27 12:19 | 53.52205 | -114.00921 | 8059 ft | 85 kts | 294° |
| 2026-04-27 12:19 | 53.52512 | -114.01780 | 8122 ft | 85 kts | 294° |
| 2026-04-27 12:20 | 53.52613 | -114.02060 | 8143 ft | 85 kts | 294° |
| 2026-04-27 12:20 | 53.52920 | -114.02917 | 8204 ft | 85 kts | 294° |
| 2026-04-27 12:20 | 53.53227 | -114.03767 | 8265 ft | 85 kts | 295° |
| 2026-04-27 12:20 | 53.53532 | -114.04616 | 8325 ft | 85 kts | 295° |
| 2026-04-27 12:21 | 53.53842 | -114.05478 | 8385 ft | 85 kts | 295° |
| 2026-04-27 12:21 | 53.54149 | -114.06327 | 8443 ft | 85 kts | 295° |
| 2026-04-27 12:21 | 53.54458 | -114.07187 | 8502 ft | 85 kts | 295° |
| 2026-04-27 12:21 | 53.54765 | -114.08039 | 8559 ft | 85 kts | 294° |
| 2026-04-27 12:22 | 53.55072 | -114.08894 | 8617 ft | 85 kts | 294° |
| 2026-04-27 12:22 | 53.55382 | -114.09754 | 8673 ft | 85 kts | 294° |
| 2026-04-27 12:22 | 53.55690 | -114.10612 | 8729 ft | 85 kts | 294° |
| 2026-04-27 12:22 | 53.55996 | -114.11462 | 8785 ft | 85 kts | 294° |
| 2026-04-27 12:23 | 53.56306 | -114.12323 | 8840 ft | 85 kts | 294° |
| 2026-04-27 12:23 | 53.56612 | -114.13176 | 8894 ft | 85 kts | 294° |
| 2026-04-27 12:23 | 53.56920 | -114.14032 | 8951 ft | 85 kts | 294° |
| 2026-04-27 12:23 | 53.57227 | -114.14886 | 8996 ft | 86 kts | 295° |
| 2026-04-27 12:24 | 53.57549 | -114.15777 | 9009 ft | 91 kts | 296° |
| 2026-04-27 12:24 | 53.57893 | -114.16710 | 9011 ft | 97 kts | 298° |
| 2026-04-27 12:24 | 53.58268 | -114.17709 | 9012 ft | 103 kts | 299° |
| 2026-04-27 12:24 | 53.58667 | -114.18766 | 9012 ft | 110 kts | 300° |
| 2026-04-27 12:25 | 53.59088 | -114.19885 | 9011 ft | 117 kts | 301° |
| 2026-04-27 12:25 | 53.59536 | -114.21079 | 9009 ft | 122 kts | 301° |
| 2026-04-27 12:25 | 53.59994 | -114.22306 | 9007 ft | 126 kts | 301° |
| 2026-04-27 12:25 | 53.60464 | -114.23573 | 9005 ft | 129 kts | 301° |
| 2026-04-27 12:26 | 53.60945 | -114.24873 | 9004 ft | 130 kts | 301° |
| 2026-04-27 12:26 | 53.61422 | -114.26166 | 9003 ft | 131 kts | 301° |
| 2026-04-27 12:26 | 53.61903 | -114.27483 | 9002 ft | 132 kts | 301° |
| 2026-04-27 12:26 | 53.62381 | -114.28798 | 9002 ft | 132 kts | 301° |
| 2026-04-27 12:27 | 53.62856 | -114.30113 | 9002 ft | 132 kts | 301° |
| 2026-04-27 12:27 | 53.63335 | -114.31445 | 9001 ft | 132 kts | 301° |
| 2026-04-27 12:27 | 53.63810 | -114.32771 | 9001 ft | 132 kts | 301° |
| 2026-04-27 12:27 | 53.64280 | -114.34081 | 8999 ft | 130 kts | 301° |
| 2026-04-27 12:28 | 53.64748 | -114.35390 | 9000 ft | 128 kts | 301° |
| 2026-04-27 12:28 | 53.65207 | -114.36680 | 9000 ft | 128 kts | 300° |
| 2026-04-27 12:28 | 53.65662 | -114.37962 | 9004 ft | 127 kts | 300° |
| 2026-04-27 12:28 | 53.66113 | -114.39232 | 9000 ft | 127 kts | 301° |
| 2026-04-27 12:29 | 53.66571 | -114.40522 | 8999 ft | 127 kts | 301° |
| 2026-04-27 12:29 | 53.67027 | -114.41804 | 8998 ft | 127 kts | 301° |
| 2026-04-27 12:29 | 53.67479 | -114.43072 | 9012 ft | 127 kts | 301° |
| 2026-04-27 12:29 | 53.67938 | -114.44364 | 9016 ft | 128 kts | 301° |
| 2026-04-27 12:30 | 53.68397 | -114.45656 | 9017 ft | 129 kts | 301° |
| 2026-04-27 12:30 | 53.68860 | -114.46958 | 9016 ft | 129 kts | 301° |
| 2026-04-27 12:30 | 53.69318 | -114.48250 | 9000 ft | 129 kts | 301° |
| 2026-04-27 12:30 | 53.69779 | -114.49550 | 8995 ft | 128 kts | 301° |
| 2026-04-27 12:31 | 53.70230 | -114.50824 | 8994 ft | 127 kts | 300° |
| 2026-04-27 12:31 | 53.70683 | -114.52107 | 8994 ft | 126 kts | 300° |
| 2026-04-27 12:31 | 53.71130 | -114.53374 | 8993 ft | 126 kts | 300° |
| 2026-04-27 12:31 | 53.71580 | -114.54649 | 8992 ft | 126 kts | 300° |
| 2026-04-27 12:32 | 53.72025 | -114.55912 | 8992 ft | 126 kts | 300° |
| 2026-04-27 12:32 | 53.72471 | -114.57175 | 8991 ft | 126 kts | 300° |
| 2026-04-27 12:32 | 53.72920 | -114.58451 | 8990 ft | 126 kts | 300° |
| 2026-04-27 12:32 | 53.73370 | -114.59727 | 8986 ft | 126 kts | 300° |
| 2026-04-27 12:33 | 53.73814 | -114.60990 | 8982 ft | 126 kts | 300° |
| 2026-04-27 12:33 | 53.74264 | -114.62265 | 8978 ft | 126 kts | 300° |
| 2026-04-27 12:33 | 53.74628 | -114.63303 | 8963 ft | 126 kts | 300° |
| 2026-04-27 12:33 | 53.74851 | -114.63935 | 8957 ft | 125 kts | 300° |
| 2026-04-27 12:34 | 53.75293 | -114.65196 | 8955 ft | 123 kts | 299° |
| 2026-04-27 12:34 | 53.75723 | -114.66428 | 8955 ft | 122 kts | 298° |
| 2026-04-27 12:34 | 53.76153 | -114.67664 | 8955 ft | 121 kts | 298° |
| 2026-04-27 12:34 | 53.76576 | -114.68881 | 8971 ft | 121 kts | 298° |
| 2026-04-27 12:35 | 53.77010 | -114.70122 | 8973 ft | 123 kts | 299° |
| 2026-04-27 12:35 | 53.77444 | -114.71359 | 8972 ft | 124 kts | 299° |
| 2026-04-27 12:35 | 53.77889 | -114.72625 | 8978 ft | 124 kts | 300° |
| 2026-04-27 12:35 | 53.78328 | -114.73873 | 8971 ft | 125 kts | 300° |
| 2026-04-27 12:36 | 53.78777 | -114.75147 | 8969 ft | 126 kts | 300° |
| 2026-04-27 12:36 | 53.79220 | -114.76405 | 8970 ft | 126 kts | 300° |
| 2026-04-27 12:36 | 53.79670 | -114.77685 | 8968 ft | 126 kts | 300° |
| 2026-04-27 12:36 | 53.80114 | -114.78951 | 8967 ft | 126 kts | 300° |
| 2026-04-27 12:37 | 53.80565 | -114.80237 | 8966 ft | 126 kts | 300° |
| 2026-04-27 12:37 | 53.81010 | -114.81506 | 8965 ft | 126 kts | 300° |
| 2026-04-27 12:37 | 53.81462 | -114.82800 | 8964 ft | 126 kts | 300° |
| 2026-04-27 12:37 | 53.81906 | -114.84069 | 8963 ft | 126 kts | 300° |
| 2026-04-27 12:38 | 53.82355 | -114.85355 | 8963 ft | 126 kts | 300° |
| 2026-04-27 12:38 | 53.82799 | -114.86627 | 8962 ft | 126 kts | 300° |
| 2026-04-27 12:38 | 53.83248 | -114.87914 | 8961 ft | 126 kts | 300° |
| 2026-04-27 12:38 | 53.83696 | -114.89199 | 8961 ft | 126 kts | 300° |
| 2026-04-27 12:39 | 53.84139 | -114.90470 | 8965 ft | 126 kts | 300° |
| 2026-04-27 12:39 | 53.84587 | -114.91758 | 8960 ft | 126 kts | 300° |
| 2026-04-27 12:39 | 53.85036 | -114.93047 | 8959 ft | 126 kts | 300° |
| 2026-04-27 12:39 | 53.85479 | -114.94322 | 8956 ft | 126 kts | 300° |
| 2026-04-27 12:40 | 53.85928 | -114.95614 | 8955 ft | 126 kts | 300° |
| 2026-04-27 12:40 | 53.86370 | -114.96886 | 8954 ft | 126 kts | 300° |
| 2026-04-27 12:40 | 53.86815 | -114.98171 | 8954 ft | 126 kts | 300° |
| 2026-04-27 12:40 | 53.87257 | -114.99444 | 8955 ft | 126 kts | 300° |
| 2026-04-27 12:41 | 53.87703 | -115.00730 | 8955 ft | 126 kts | 300° |
| 2026-04-27 12:41 | 53.88145 | -115.02006 | 8954 ft | 126 kts | 300° |
| 2026-04-27 12:41 | 53.88591 | -115.03294 | 8954 ft | 127 kts | 300° |
| 2026-04-27 12:41 | 53.89039 | -115.04588 | 8953 ft | 127 kts | 300° |
| 2026-04-27 12:42 | 53.89483 | -115.05870 | 8953 ft | 127 kts | 300° |
| 2026-04-27 12:42 | 53.89927 | -115.07152 | 8952 ft | 127 kts | 300° |
| 2026-04-27 12:42 | 53.90376 | -115.08449 | 8952 ft | 127 kts | 300° |
| 2026-04-27 12:42 | 53.90819 | -115.09733 | 8952 ft | 127 kts | 300° |
| 2026-04-27 12:43 | 53.91269 | -115.11035 | 8952 ft | 127 kts | 300° |
| 2026-04-27 12:43 | 53.91709 | -115.12317 | 8998 ft | 124 kts | 300° |
| 2026-04-27 12:43 | 53.92139 | -115.13574 | 9009 ft | 124 kts | 300° |
| 2026-04-27 12:43 | 53.92578 | -115.14854 | 9011 ft | 125 kts | 300° |
| 2026-04-27 12:44 | 53.93016 | -115.16128 | 9011 ft | 126 kts | 300° |
| 2026-04-27 12:44 | 53.93462 | -115.17420 | 9010 ft | 127 kts | 300° |
| 2026-04-27 12:44 | 53.93910 | -115.18719 | 9010 ft | 127 kts | 300° |
| 2026-04-27 12:44 | 53.94355 | -115.20007 | 9009 ft | 127 kts | 300° |
| 2026-04-27 12:45 | 53.94804 | -115.21309 | 9009 ft | 127 kts | 300° |
| 2026-04-27 12:45 | 53.95248 | -115.22596 | 9010 ft | 127 kts | 300° |
| 2026-04-27 12:45 | 53.95698 | -115.23904 | 9009 ft | 127 kts | 300° |
| 2026-04-27 12:45 | 53.96142 | -115.25196 | 9009 ft | 127 kts | 300° |
| 2026-04-27 12:46 | 53.96591 | -115.26503 | 9007 ft | 127 kts | 300° |
| 2026-04-27 12:46 | 53.97034 | -115.27792 | 9014 ft | 127 kts | 300° |
| 2026-04-27 12:46 | 53.97482 | -115.29100 | 9005 ft | 127 kts | 300° |
| 2026-04-27 12:46 | 53.97924 | -115.30391 | 9010 ft | 127 kts | 300° |
| 2026-04-27 12:47 | 53.98373 | -115.31700 | 9003 ft | 127 kts | 300° |
| 2026-04-27 12:47 | 53.98816 | -115.32995 | 9002 ft | 128 kts | 300° |
| 2026-04-27 12:47 | 53.99266 | -115.34308 | 9000 ft | 128 kts | 300° |
| 2026-04-27 12:47 | 53.99579 | -115.35225 | 9000 ft | 128 kts | 300° |
| 2026-04-27 12:48 | 53.99873 | -115.36083 | 8999 ft | 128 kts | 300° |
| 2026-04-27 12:48 | 54.00321 | -115.37394 | 8998 ft | 128 kts | 300° |
| 2026-04-27 12:48 | 54.00763 | -115.38689 | 8997 ft | 128 kts | 300° |
| 2026-04-27 12:48 | 54.01212 | -115.40003 | 8996 ft | 128 kts | 300° |
| 2026-04-27 12:49 | 54.01658 | -115.41312 | 8995 ft | 128 kts | 300° |
| 2026-04-27 12:49 | 54.02100 | -115.42607 | 8994 ft | 128 kts | 300° |
| 2026-04-27 12:49 | 54.02547 | -115.43918 | 8993 ft | 128 kts | 300° |
| 2026-04-27 12:49 | 54.02994 | -115.45232 | 8992 ft | 128 kts | 300° |
| 2026-04-27 12:50 | 54.03434 | -115.46522 | 8991 ft | 128 kts | 300° |
| 2026-04-27 12:50 | 54.03880 | -115.47831 | 8990 ft | 128 kts | 300° |
| 2026-04-27 12:50 | 54.04327 | -115.49146 | 8989 ft | 128 kts | 300° |
| 2026-04-27 12:50 | 54.04771 | -115.50452 | 8989 ft | 128 kts | 300° |
| 2026-04-27 12:51 | 54.05217 | -115.51765 | 8990 ft | 128 kts | 300° |
| 2026-04-27 12:51 | 54.05658 | -115.53064 | 8990 ft | 128 kts | 300° |
| 2026-04-27 12:51 | 54.06105 | -115.54381 | 8990 ft | 128 kts | 300° |
| 2026-04-27 12:51 | 54.06546 | -115.55682 | 8990 ft | 128 kts | 300° |
| 2026-04-27 12:52 | 54.06995 | -115.57004 | 8991 ft | 128 kts | 300° |
| 2026-04-27 12:52 | 54.07438 | -115.58311 | 8991 ft | 128 kts | 300° |
| 2026-04-27 12:52 | 54.07879 | -115.59615 | 8991 ft | 128 kts | 300° |
| 2026-04-27 12:52 | 54.08327 | -115.60938 | 8991 ft | 128 kts | 300° |
| 2026-04-27 12:53 | 54.09213 | -115.63561 | 8992 ft | 128 kts | 300° |
| 2026-04-27 12:53 | 54.09654 | -115.64864 | 8992 ft | 128 kts | 300° |
| 2026-04-27 12:53 | 54.10103 | -115.66193 | 8991 ft | 128 kts | 300° |
| 2026-04-27 12:54 | 54.10544 | -115.67497 | 8990 ft | 128 kts | 300° |
| 2026-04-27 12:54 | 54.10991 | -115.68819 | 8990 ft | 128 kts | 300° |
| 2026-04-27 12:54 | 54.11438 | -115.70142 | 8991 ft | 128 kts | 299° |
| 2026-04-27 12:54 | 54.11879 | -115.71452 | 8990 ft | 128 kts | 299° |
| 2026-04-27 12:55 | 54.12320 | -115.72762 | 8990 ft | 128 kts | 299° |
| 2026-04-27 12:55 | 54.12767 | -115.74088 | 8990 ft | 128 kts | 299° |
| 2026-04-27 12:55 | 54.13211 | -115.75407 | 8990 ft | 128 kts | 299° |
| 2026-04-27 12:55 | 54.13653 | -115.76722 | 8989 ft | 128 kts | 299° |
| 2026-04-27 12:56 | 54.14099 | -115.78047 | 8989 ft | 128 kts | 299° |
| 2026-04-27 12:56 | 54.14547 | -115.79376 | 8989 ft | 128 kts | 301° |
| 2026-04-27 12:56 | 54.15062 | -115.80605 | 8991 ft | 129 kts | 308° |
| 2026-04-27 12:56 | 54.15618 | -115.81800 | 8989 ft | 129 kts | 308° |
| 2026-04-27 12:57 | 54.16180 | -115.83001 | 8990 ft | 129 kts | 308° |
| 2026-04-27 12:57 | 54.16734 | -115.84189 | 8989 ft | 129 kts | 308° |
| 2026-04-27 12:57 | 54.17297 | -115.85397 | 8989 ft | 129 kts | 308° |
| 2026-04-27 12:57 | 54.17852 | -115.86591 | 8989 ft | 129 kts | 308° |
| 2026-04-27 12:58 | 54.18411 | -115.87796 | 8989 ft | 129 kts | 308° |
| 2026-04-27 12:58 | 54.18963 | -115.88987 | 8989 ft | 129 kts | 308° |
| 2026-04-27 12:58 | 54.19524 | -115.90198 | 8989 ft | 129 kts | 308° |
| 2026-04-27 12:58 | 54.20084 | -115.91409 | 8990 ft | 129 kts | 308° |
| 2026-04-27 12:59 | 54.20636 | -115.92602 | 8991 ft | 129 kts | 308° |
| 2026-04-27 12:59 | 54.21194 | -115.93810 | 8991 ft | 129 kts | 308° |
| 2026-04-27 12:59 | 54.21752 | -115.95019 | 8991 ft | 129 kts | 308° |
| 2026-04-27 12:59 | 54.22305 | -115.96217 | 8991 ft | 129 kts | 308° |
| 2026-04-27 13:00 | 54.22859 | -115.97419 | 8991 ft | 129 kts | 308° |
| 2026-04-27 13:00 | 54.23419 | -115.98634 | 8991 ft | 129 kts | 308° |
| 2026-04-27 13:00 | 54.23977 | -115.99846 | 8992 ft | 129 kts | 308° |
| 2026-04-27 13:00 | 54.24528 | -116.01042 | 8993 ft | 129 kts | 308° |
| 2026-04-27 13:01 | 54.25086 | -116.02254 | 8993 ft | 129 kts | 308° |
| 2026-04-27 13:01 | 54.25643 | -116.03464 | 8992 ft | 129 kts | 308° |
| 2026-04-27 13:01 | 54.26199 | -116.04675 | 8992 ft | 129 kts | 308° |
| 2026-04-27 13:01 | 54.26748 | -116.05871 | 8994 ft | 129 kts | 308° |
| 2026-04-27 13:02 | 54.27305 | -116.07085 | 8991 ft | 129 kts | 308° |
| 2026-04-27 13:02 | 54.27855 | -116.08282 | 8990 ft | 129 kts | 308° |
| 2026-04-27 13:02 | 54.28408 | -116.09490 | 8990 ft | 129 kts | 308° |
| 2026-04-27 13:02 | 54.28963 | -116.10699 | 8990 ft | 129 kts | 308° |
| 2026-04-27 13:03 | 54.29510 | -116.11894 | 8990 ft | 129 kts | 308° |
| 2026-04-27 13:03 | 54.30066 | -116.13107 | 8990 ft | 129 kts | 308° |
| 2026-04-27 13:03 | 54.30621 | -116.14318 | 8990 ft | 129 kts | 308° |
| 2026-04-27 13:03 | 54.31166 | -116.15511 | 8994 ft | 128 kts | 308° |
| 2026-04-27 13:04 | 54.31719 | -116.16720 | 8989 ft | 129 kts | 308° |
| 2026-04-27 13:04 | 54.32273 | -116.17931 | 8988 ft | 129 kts | 308° |
| 2026-04-27 13:04 | 54.32826 | -116.19141 | 8990 ft | 128 kts | 308° |
| 2026-04-27 13:04 | 54.33378 | -116.20349 | 8988 ft | 129 kts | 308° |
| 2026-04-27 13:05 | 54.33923 | -116.21542 | 8987 ft | 128 kts | 308° |
| 2026-04-27 13:05 | 54.34477 | -116.22757 | 8986 ft | 128 kts | 308° |
| 2026-04-27 13:05 | 54.35028 | -116.23965 | 8985 ft | 128 kts | 308° |
| 2026-04-27 13:05 | 54.35572 | -116.25157 | 8985 ft | 128 kts | 308° |
| 2026-04-27 13:06 | 54.36123 | -116.26366 | 8993 ft | 127 kts | 308° |
| 2026-04-27 13:06 | 54.36667 | -116.27560 | 8984 ft | 128 kts | 308° |
| 2026-04-27 13:06 | 54.37217 | -116.28768 | 8984 ft | 128 kts | 308° |
| 2026-04-27 13:06 | 54.37766 | -116.29974 | 8983 ft | 128 kts | 308° |
| 2026-04-27 13:07 | 54.38317 | -116.31184 | 8982 ft | 128 kts | 308° |
| 2026-04-27 13:07 | 54.38858 | -116.32375 | 8983 ft | 128 kts | 308° |
| 2026-04-27 13:07 | 54.39407 | -116.33583 | 8982 ft | 128 kts | 308° |
| 2026-04-27 13:07 | 54.39957 | -116.34794 | 8981 ft | 128 kts | 308° |
| 2026-04-27 13:08 | 54.40498 | -116.35987 | 8981 ft | 128 kts | 308° |
| 2026-04-27 13:08 | 54.41046 | -116.37194 | 8981 ft | 128 kts | 308° |
| 2026-04-27 13:08 | 54.41595 | -116.38405 | 8981 ft | 128 kts | 308° |
| 2026-04-27 13:08 | 54.42137 | -116.39601 | 8986 ft | 128 kts | 308° |
| 2026-04-27 13:09 | 54.42686 | -116.40810 | 8989 ft | 129 kts | 308° |
| 2026-04-27 13:09 | 54.43239 | -116.42028 | 8988 ft | 129 kts | 308° |
| 2026-04-27 13:09 | 54.43785 | -116.43230 | 8987 ft | 129 kts | 308° |
| 2026-04-27 13:09 | 54.44339 | -116.44453 | 8982 ft | 129 kts | 308° |
| 2026-04-27 13:10 | 54.44891 | -116.45671 | 8979 ft | 129 kts | 308° |
| 2026-04-27 13:10 | 54.45435 | -116.46876 | 8980 ft | 128 kts | 308° |
| 2026-04-27 13:10 | 54.45985 | -116.48093 | 8980 ft | 128 kts | 308° |
| 2026-04-27 13:10 | 54.46534 | -116.49309 | 8981 ft | 128 kts | 308° |
| 2026-04-27 13:11 | 54.47083 | -116.50526 | 8983 ft | 128 kts | 308° |
| 2026-04-27 13:11 | 54.47625 | -116.51727 | 8985 ft | 128 kts | 308° |
| 2026-04-27 13:11 | 54.48172 | -116.52941 | 8986 ft | 128 kts | 308° |
| 2026-04-27 13:11 | 54.48719 | -116.54155 | 8988 ft | 128 kts | 308° |
| 2026-04-27 13:12 | 54.49259 | -116.55354 | 8989 ft | 128 kts | 308° |
| 2026-04-27 13:12 | 54.49807 | -116.56570 | 8991 ft | 128 kts | 308° |
| 2026-04-27 13:12 | 54.50346 | -116.57769 | 8992 ft | 128 kts | 308° |
| 2026-04-27 13:12 | 54.50893 | -116.58986 | 8992 ft | 128 kts | 308° |
| 2026-04-27 13:13 | 54.51440 | -116.60201 | 8990 ft | 128 kts | 308° |
| 2026-04-27 13:13 | 54.51981 | -116.61404 | 8987 ft | 128 kts | 308° |
| 2026-04-27 13:13 | 54.52528 | -116.62620 | 8985 ft | 128 kts | 308° |
| 2026-04-27 13:13 | 54.53075 | -116.63840 | 8983 ft | 128 kts | 307° |
| 2026-04-27 13:14 | 54.53622 | -116.65058 | 8983 ft | 128 kts | 307° |
| 2026-04-27 13:14 | 54.54162 | -116.66262 | 8984 ft | 128 kts | 307° |
| 2026-04-27 13:14 | 54.54706 | -116.67479 | 8984 ft | 128 kts | 307° |
| 2026-04-27 13:14 | 54.55245 | -116.68682 | 8985 ft | 128 kts | 307° |
| 2026-04-27 13:15 | 54.55789 | -116.69899 | 8986 ft | 128 kts | 307° |
| 2026-04-27 13:15 | 54.56334 | -116.71116 | 8986 ft | 128 kts | 307° |
| 2026-04-27 13:15 | 54.56871 | -116.72317 | 8987 ft | 127 kts | 307° |
| 2026-04-27 13:15 | 54.57413 | -116.73530 | 8988 ft | 127 kts | 307° |
| 2026-04-27 13:16 | 54.57632 | -116.74019 | 8988 ft | 127 kts | 307° |
| 2026-04-27 13:16 | 54.58175 | -116.75235 | 8989 ft | 127 kts | 307° |
| 2026-04-27 13:16 | 54.58711 | -116.76436 | 8988 ft | 127 kts | 307° |
| 2026-04-27 13:16 | 54.59252 | -116.77651 | 8991 ft | 127 kts | 307° |
| 2026-04-27 13:17 | 54.59786 | -116.78848 | 8987 ft | 127 kts | 307° |
| 2026-04-27 13:17 | 54.60329 | -116.80063 | 8984 ft | 127 kts | 307° |
| 2026-04-27 13:17 | 54.60871 | -116.81279 | 8981 ft | 127 kts | 307° |
| 2026-04-27 13:17 | 54.61407 | -116.82482 | 8978 ft | 127 kts | 307° |
| 2026-04-27 13:18 | 54.61950 | -116.83699 | 8976 ft | 127 kts | 307° |
| 2026-04-27 13:18 | 54.62484 | -116.84900 | 8976 ft | 127 kts | 307° |
| 2026-04-27 13:18 | 54.63019 | -116.86102 | 8976 ft | 127 kts | 307° |
| 2026-04-27 13:18 | 54.63559 | -116.87317 | 8976 ft | 127 kts | 307° |
| 2026-04-27 13:19 | 54.64098 | -116.88530 | 8976 ft | 127 kts | 307° |
| 2026-04-27 13:19 | 54.64631 | -116.89729 | 8976 ft | 127 kts | 307° |
| 2026-04-27 13:19 | 54.65169 | -116.90942 | 8976 ft | 127 kts | 307° |
| 2026-04-27 13:19 | 54.65703 | -116.92142 | 8976 ft | 126 kts | 307° |
| 2026-04-27 13:20 | 54.66242 | -116.93352 | 8976 ft | 126 kts | 307° |
| 2026-04-27 13:20 | 54.66774 | -116.94548 | 8986 ft | 126 kts | 307° |
| 2026-04-27 13:20 | 54.67310 | -116.95762 | 8977 ft | 126 kts | 307° |
| 2026-04-27 13:20 | 54.67845 | -116.96973 | 8977 ft | 126 kts | 307° |
| 2026-04-27 13:21 | 54.68374 | -116.98167 | 8977 ft | 126 kts | 307° |
| 2026-04-27 13:21 | 54.68910 | -116.99379 | 8977 ft | 126 kts | 307° |
| 2026-04-27 13:21 | 54.69445 | -117.00590 | 8977 ft | 126 kts | 307° |
| 2026-04-27 13:21 | 54.69973 | -117.01784 | 8977 ft | 126 kts | 307° |
| 2026-04-27 13:22 | 54.70509 | -117.02998 | 8978 ft | 126 kts | 307° |
| 2026-04-27 13:22 | 54.71043 | -117.04208 | 8986 ft | 126 kts | 307° |
| 2026-04-27 13:22 | 54.71569 | -117.05402 | 8979 ft | 126 kts | 307° |
| 2026-04-27 13:22 | 54.72104 | -117.06612 | 8980 ft | 126 kts | 307° |
| 2026-04-27 13:23 | 54.72640 | -117.07828 | 8980 ft | 126 kts | 307° |
| 2026-04-27 13:23 | 54.73168 | -117.09025 | 8981 ft | 126 kts | 307° |
| 2026-04-27 13:23 | 54.73704 | -117.10241 | 8981 ft | 126 kts | 307° |
| 2026-04-27 13:23 | 54.74231 | -117.11439 | 8982 ft | 126 kts | 307° |
| 2026-04-27 13:24 | 54.74763 | -117.12648 | 8983 ft | 126 kts | 307° |
| 2026-04-27 13:24 | 54.75291 | -117.13847 | 8984 ft | 126 kts | 307° |
| 2026-04-27 13:24 | 54.75824 | -117.15058 | 8984 ft | 126 kts | 307° |
| 2026-04-27 13:24 | 54.76353 | -117.16263 | 8985 ft | 126 kts | 307° |
| 2026-04-27 13:25 | 54.76888 | -117.17480 | 8986 ft | 126 kts | 307° |
| 2026-04-27 13:25 | 54.77414 | -117.18680 | 8986 ft | 126 kts | 307° |
| 2026-04-27 13:25 | 54.77948 | -117.19896 | 8987 ft | 126 kts | 307° |
| 2026-04-27 13:25 | 54.78473 | -117.21094 | 8988 ft | 126 kts | 307° |
| 2026-04-27 13:26 | 54.79004 | -117.22304 | 8995 ft | 125 kts | 307° |
| 2026-04-27 13:26 | 54.79535 | -117.23518 | 8989 ft | 126 kts | 307° |
| 2026-04-27 13:26 | 54.80059 | -117.24713 | 8990 ft | 126 kts | 307° |
| 2026-04-27 13:26 | 54.80589 | -117.25924 | 8988 ft | 126 kts | 307° |
| 2026-04-27 13:27 | 54.81121 | -117.27138 | 8988 ft | 126 kts | 307° |
| 2026-04-27 13:27 | 54.81644 | -117.28336 | 8987 ft | 126 kts | 307° |
| 2026-04-27 13:27 | 54.82174 | -117.29548 | 8986 ft | 125 kts | 307° |
| 2026-04-27 13:27 | 54.82697 | -117.30746 | 8986 ft | 125 kts | 307° |
| 2026-04-27 13:28 | 54.83226 | -117.31957 | 8985 ft | 125 kts | 307° |
| 2026-04-27 13:28 | 54.83749 | -117.33156 | 8985 ft | 125 kts | 307° |
| 2026-04-27 13:28 | 54.84278 | -117.34367 | 8984 ft | 125 kts | 307° |
| 2026-04-27 13:28 | 54.84805 | -117.35577 | 8984 ft | 125 kts | 307° |
| 2026-04-27 13:29 | 54.85334 | -117.36790 | 8983 ft | 125 kts | 307° |
| 2026-04-27 13:29 | 54.85857 | -117.37990 | 8983 ft | 125 kts | 307° |
| 2026-04-27 13:29 | 54.86378 | -117.39187 | 8982 ft | 125 kts | 307° |
| 2026-04-27 13:29 | 54.86904 | -117.40397 | 8982 ft | 125 kts | 307° |
| 2026-04-27 13:30 | 54.87431 | -117.41608 | 8981 ft | 125 kts | 307° |
| 2026-04-27 13:30 | 54.87953 | -117.42808 | 8981 ft | 125 kts | 307° |
| 2026-04-27 13:30 | 54.88481 | -117.44022 | 8980 ft | 125 kts | 307° |
| 2026-04-27 13:30 | 54.89000 | -117.45218 | 8980 ft | 125 kts | 307° |
| 2026-04-27 13:31 | 54.89527 | -117.46431 | 8978 ft | 125 kts | 307° |
| 2026-04-27 13:31 | 54.89714 | -117.46862 | 8976 ft | 125 kts | 307° |
| 2026-04-27 13:31 | 54.90243 | -117.48080 | 8971 ft | 125 kts | 307° |
| 2026-04-27 13:31 | 54.90765 | -117.49284 | 8966 ft | 125 kts | 307° |
| 2026-04-27 13:32 | 54.91293 | -117.50505 | 8961 ft | 125 kts | 307° |
| 2026-04-27 13:32 | 54.91814 | -117.51707 | 8960 ft | 125 kts | 307° |
| 2026-04-27 13:32 | 54.92339 | -117.52921 | 8960 ft | 125 kts | 307° |
| 2026-04-27 13:32 | 54.92859 | -117.54122 | 8961 ft | 125 kts | 307° |
| 2026-04-27 13:33 | 54.93385 | -117.55338 | 8961 ft | 125 kts | 307° |
| 2026-04-27 13:33 | 54.93910 | -117.56551 | 8961 ft | 125 kts | 307° |
| 2026-04-27 13:33 | 54.94429 | -117.57752 | 8961 ft | 125 kts | 307° |
| 2026-04-27 13:33 | 54.94956 | -117.58972 | 8961 ft | 125 kts | 307° |
| 2026-04-27 13:34 | 54.95472 | -117.60168 | 8961 ft | 125 kts | 307° |
| 2026-04-27 13:34 | 54.95996 | -117.61382 | 8961 ft | 125 kts | 307° |
| 2026-04-27 13:34 | 54.96519 | -117.62595 | 8960 ft | 125 kts | 307° |
| 2026-04-27 13:34 | 54.97034 | -117.63788 | 8960 ft | 125 kts | 307° |
| 2026-04-27 13:35 | 54.97557 | -117.65003 | 8959 ft | 125 kts | 306° |
| 2026-04-27 13:35 | 54.98079 | -117.66216 | 8962 ft | 125 kts | 306° |
| 2026-04-27 13:35 | 54.98596 | -117.67419 | 8961 ft | 125 kts | 306° |
| 2026-04-27 13:35 | 54.99117 | -117.68632 | 8959 ft | 125 kts | 306° |
| 2026-04-27 13:36 | 54.99633 | -117.69831 | 8958 ft | 125 kts | 306° |
| 2026-04-27 13:36 | 55.00155 | -117.71046 | 8961 ft | 124 kts | 306° |
| 2026-04-27 13:36 | 55.00676 | -117.72258 | 8957 ft | 124 kts | 306° |
| 2026-04-27 13:36 | 55.01192 | -117.73458 | 8956 ft | 124 kts | 306° |
| 2026-04-27 13:37 | 55.01712 | -117.74669 | 8956 ft | 124 kts | 306° |
| 2026-04-27 13:37 | 55.02226 | -117.75867 | 8957 ft | 124 kts | 306° |
| 2026-04-27 13:37 | 55.02745 | -117.77076 | 8958 ft | 124 kts | 306° |
| 2026-04-27 13:37 | 55.03257 | -117.78272 | 8963 ft | 124 kts | 306° |
| 2026-04-27 13:38 | 55.03775 | -117.79481 | 8965 ft | 124 kts | 306° |
| 2026-04-27 13:38 | 55.04293 | -117.80691 | 8961 ft | 124 kts | 306° |
| 2026-04-27 13:38 | 55.04805 | -117.81886 | 8962 ft | 124 kts | 306° |
| 2026-04-27 13:38 | 55.05322 | -117.83096 | 8962 ft | 124 kts | 306° |
| 2026-04-27 13:39 | 55.05834 | -117.84293 | 8963 ft | 124 kts | 306° |
| 2026-04-27 13:39 | 55.06353 | -117.85507 | 8964 ft | 124 kts | 306° |
| 2026-04-27 13:39 | 55.06862 | -117.86700 | 8967 ft | 124 kts | 306° |
| 2026-04-27 13:39 | 55.07380 | -117.87914 | 8966 ft | 124 kts | 306° |
| 2026-04-27 13:40 | 55.07898 | -117.89126 | 8967 ft | 124 kts | 306° |
| 2026-04-27 13:40 | 55.08407 | -117.90321 | 8966 ft | 124 kts | 306° |
| 2026-04-27 13:40 | 55.08925 | -117.91535 | 8965 ft | 124 kts | 306° |
| 2026-04-27 13:40 | 55.09436 | -117.92734 | 8963 ft | 124 kts | 306° |
| 2026-04-27 13:41 | 55.09948 | -117.93936 | 8962 ft | 124 kts | 306° |
| 2026-04-27 13:41 | 55.10467 | -117.95153 | 8961 ft | 124 kts | 306° |
| 2026-04-27 13:41 | 55.10978 | -117.96352 | 8961 ft | 124 kts | 306° |
| 2026-04-27 13:41 | 55.11494 | -117.97564 | 8960 ft | 124 kts | 306° |
| 2026-04-27 13:42 | 55.12006 | -117.98766 | 8960 ft | 124 kts | 306° |
| 2026-04-27 13:42 | 55.12516 | -117.99966 | 8960 ft | 124 kts | 306° |
| 2026-04-27 13:42 | 55.13027 | -118.01170 | 8960 ft | 124 kts | 306° |
| 2026-04-27 13:42 | 55.13542 | -118.02381 | 8960 ft | 123 kts | 306° |
| 2026-04-27 13:43 | 55.14051 | -118.03583 | 8959 ft | 123 kts | 306° |
| 2026-04-27 13:43 | 55.14215 | -118.03967 | 8958 ft | 123 kts | 306° |
| 2026-04-27 13:43 | 55.14722 | -118.05164 | 8957 ft | 123 kts | 306° |
| 2026-04-27 13:43 | 55.15232 | -118.06370 | 8957 ft | 123 kts | 306° |
| 2026-04-27 13:44 | 55.15742 | -118.07573 | 8958 ft | 122 kts | 306° |
| 2026-04-27 13:44 | 55.16243 | -118.08759 | 8961 ft | 122 kts | 306° |
| 2026-04-27 13:44 | 55.16747 | -118.09951 | 8962 ft | 122 kts | 306° |
| 2026-04-27 13:44 | 55.17259 | -118.11163 | 8963 ft | 123 kts | 306° |
| 2026-04-27 13:45 | 55.17765 | -118.12357 | 8963 ft | 123 kts | 306° |
| 2026-04-27 13:45 | 55.18270 | -118.13554 | 8965 ft | 123 kts | 306° |
| 2026-04-27 13:45 | 55.18781 | -118.14763 | 8964 ft | 123 kts | 306° |
| 2026-04-27 13:45 | 55.19291 | -118.15969 | 8964 ft | 123 kts | 306° |
| 2026-04-27 13:46 | 55.19795 | -118.17165 | 8964 ft | 123 kts | 306° |
| 2026-04-27 13:46 | 55.20301 | -118.18366 | 8964 ft | 123 kts | 306° |
| 2026-04-27 13:46 | 55.20808 | -118.19567 | 8965 ft | 123 kts | 306° |
| 2026-04-27 13:46 | 55.21318 | -118.20778 | 8965 ft | 123 kts | 306° |
| 2026-04-27 13:47 | 55.21824 | -118.21980 | 8966 ft | 123 kts | 306° |
| 2026-04-27 13:47 | 55.22327 | -118.23176 | 8968 ft | 123 kts | 306° |
| 2026-04-27 13:47 | 55.22837 | -118.24388 | 8968 ft | 123 kts | 306° |
| 2026-04-27 13:47 | 55.23341 | -118.25584 | 8968 ft | 123 kts | 306° |
| 2026-04-27 13:48 | 55.23850 | -118.26797 | 8967 ft | 123 kts | 306° |
| 2026-04-27 13:48 | 55.24354 | -118.27996 | 8967 ft | 123 kts | 306° |
| 2026-04-27 13:48 | 55.24859 | -118.29198 | 8966 ft | 122 kts | 306° |
| 2026-04-27 13:48 | 55.25365 | -118.30405 | 8965 ft | 122 kts | 306° |
| 2026-04-27 13:49 | 55.25864 | -118.31594 | 8964 ft | 122 kts | 306° |
| 2026-04-27 13:49 | 55.26371 | -118.32803 | 8963 ft | 122 kts | 306° |
| 2026-04-27 13:49 | 55.26868 | -118.33987 | 8962 ft | 122 kts | 306° |
| 2026-04-27 13:49 | 55.27368 | -118.35181 | 8961 ft | 122 kts | 306° |
| 2026-04-27 13:50 | 55.27872 | -118.36386 | 8959 ft | 122 kts | 306° |
| 2026-04-27 13:50 | 55.28370 | -118.37575 | 8958 ft | 122 kts | 306° |
| 2026-04-27 13:50 | 55.28872 | -118.38776 | 8957 ft | 122 kts | 306° |
| 2026-04-27 13:50 | 55.29375 | -118.39980 | 8956 ft | 122 kts | 306° |
| 2026-04-27 13:51 | 55.29872 | -118.41170 | 8955 ft | 122 kts | 306° |
| 2026-04-27 13:51 | 55.30374 | -118.42371 | 8957 ft | 121 kts | 306° |
| 2026-04-27 13:51 | 55.30877 | -118.43578 | 8954 ft | 122 kts | 306° |
| 2026-04-27 13:51 | 55.31374 | -118.44770 | 8952 ft | 122 kts | 306° |
| 2026-04-27 13:52 | 55.31871 | -118.45960 | 8951 ft | 122 kts | 306° |
| 2026-04-27 13:52 | 55.32009 | -118.46291 | 8951 ft | 122 kts | 306° |
| 2026-04-27 13:52 | 55.32507 | -118.47485 | 8950 ft | 122 kts | 306° |
| 2026-04-27 13:52 | 55.33005 | -118.48682 | 8949 ft | 122 kts | 306° |
| 2026-04-27 13:53 | 55.34003 | -118.51080 | 8947 ft | 122 kts | 306° |
| 2026-04-27 13:53 | 55.34505 | -118.52287 | 8946 ft | 122 kts | 306° |
| 2026-04-27 13:53 | 55.35001 | -118.53481 | 8946 ft | 122 kts | 306° |
| 2026-04-27 13:54 | 55.35503 | -118.54688 | 8945 ft | 122 kts | 306° |
| 2026-04-27 13:54 | 55.35999 | -118.55884 | 8944 ft | 122 kts | 306° |
| 2026-04-27 13:54 | 55.36494 | -118.57077 | 8944 ft | 122 kts | 306° |
| 2026-04-27 13:54 | 55.36997 | -118.58288 | 8943 ft | 122 kts | 306° |
| 2026-04-27 13:55 | 55.37492 | -118.59482 | 8943 ft | 121 kts | 306° |
| 2026-04-27 13:55 | 55.37993 | -118.60690 | 8942 ft | 121 kts | 306° |
| 2026-04-27 13:55 | 55.38485 | -118.61879 | 8942 ft | 121 kts | 306° |
| 2026-04-27 13:55 | 55.38986 | -118.63089 | 8942 ft | 121 kts | 306° |
| 2026-04-27 13:56 | 55.39478 | -118.64278 | 8942 ft | 121 kts | 306° |
| 2026-04-27 13:56 | 55.39973 | -118.65475 | 8943 ft | 121 kts | 305° |
| 2026-04-27 13:56 | 55.40472 | -118.66684 | 8942 ft | 121 kts | 306° |
| 2026-04-27 13:56 | 55.40971 | -118.67890 | 8941 ft | 121 kts | 306° |
| 2026-04-27 13:57 | 55.41463 | -118.69083 | 8941 ft | 121 kts | 306° |
| 2026-04-27 13:57 | 55.41962 | -118.70293 | 8939 ft | 121 kts | 306° |
| 2026-04-27 13:57 | 55.42455 | -118.71488 | 8937 ft | 121 kts | 306° |
| 2026-04-27 13:57 | 55.42954 | -118.72697 | 8936 ft | 121 kts | 306° |
| 2026-04-27 13:58 | 55.43448 | -118.73895 | 8935 ft | 121 kts | 306° |
| 2026-04-27 13:58 | 55.43948 | -118.75108 | 8933 ft | 121 kts | 305° |
| 2026-04-27 13:58 | 55.44441 | -118.76305 | 8933 ft | 121 kts | 305° |
| 2026-04-27 13:58 | 55.44936 | -118.77508 | 8933 ft | 121 kts | 306° |
| 2026-04-27 13:59 | 55.45434 | -118.78717 | 8932 ft | 121 kts | 306° |
| 2026-04-27 13:59 | 55.45926 | -118.79915 | 8932 ft | 121 kts | 305° |
| 2026-04-27 13:59 | 55.46423 | -118.81123 | 8929 ft | 121 kts | 305° |
| 2026-04-27 13:59 | 55.46915 | -118.82323 | 8929 ft | 121 kts | 305° |
| 2026-04-27 14:00 | 55.47409 | -118.83529 | 8936 ft | 120 kts | 305° |
| 2026-04-27 14:00 | 55.47895 | -118.84717 | 8935 ft | 120 kts | 305° |
| 2026-04-27 14:00 | 55.48390 | -118.85924 | 8936 ft | 121 kts | 305° |
| 2026-04-27 14:00 | 55.48879 | -118.87117 | 8937 ft | 121 kts | 305° |
| 2026-04-27 14:01 | 55.49371 | -118.88319 | 8936 ft | 121 kts | 305° |
| 2026-04-27 14:01 | 55.49867 | -118.89528 | 8936 ft | 121 kts | 305° |
| 2026-04-27 14:01 | 55.50359 | -118.90727 | 8928 ft | 121 kts | 306° |
| 2026-04-27 14:01 | 55.50854 | -118.91937 | 8937 ft | 121 kts | 305° |
| 2026-04-27 14:02 | 55.51347 | -118.93148 | 8928 ft | 121 kts | 306° |
| 2026-04-27 14:02 | 55.51835 | -118.94342 | 8926 ft | 121 kts | 305° |
| 2026-04-27 14:02 | 55.52326 | -118.95557 | 8925 ft | 121 kts | 306° |
| 2026-04-27 14:02 | 55.52820 | -118.96744 | 8924 ft | 121 kts | 305° |
| 2026-04-27 14:03 | 55.53309 | -118.97952 | 8927 ft | 120 kts | 305° |
| 2026-04-27 14:03 | 55.53799 | -118.99161 | 8926 ft | 121 kts | 305° |
| 2026-04-27 14:03 | 55.54290 | -119.00349 | 8928 ft | 120 kts | 305° |
| 2026-04-27 14:03 | 55.54782 | -119.01549 | 8928 ft | 120 kts | 305° |
| 2026-04-27 14:04 | 55.55275 | -119.02756 | 8930 ft | 120 kts | 306° |
| 2026-04-27 14:04 | 55.55763 | -119.03957 | 8927 ft | 121 kts | 305° |
| 2026-04-27 14:04 | 55.56246 | -119.05170 | 8931 ft | 120 kts | 306° |
| 2026-04-27 14:04 | 55.56713 | -119.06310 | 8931 ft | 120 kts | 304° |
| 2026-04-27 14:05 | 55.56827 | -119.06596 | 8932 ft | 120 kts | 304° |
| 2026-04-27 14:05 | 55.57315 | -119.07809 | 8931 ft | 121 kts | 303° |
| 2026-04-27 14:05 | 55.57800 | -119.09006 | 8933 ft | 121 kts | 305° |
| 2026-04-27 14:05 | 55.58296 | -119.10212 | 8935 ft | 120 kts | 305° |
| 2026-04-27 14:06 | 55.58783 | -119.11406 | 8934 ft | 120 kts | 305° |
| 2026-04-27 14:06 | 55.59275 | -119.12615 | 8934 ft | 121 kts | 306° |
| 2026-04-27 14:06 | 55.59762 | -119.13827 | 8933 ft | 121 kts | 304° |
| 2026-04-27 14:06 | 55.60248 | -119.15022 | 8936 ft | 120 kts | 305° |
| 2026-04-27 14:07 | 55.60740 | -119.16238 | 8937 ft | 120 kts | 306° |
| 2026-04-27 14:07 | 55.61223 | -119.17441 | 8937 ft | 120 kts | 304° |
| 2026-04-27 14:07 | 55.61711 | -119.18655 | 8935 ft | 121 kts | 305° |
| 2026-04-27 14:07 | 55.62196 | -119.19852 | 8937 ft | 120 kts | 305° |
| 2026-04-27 14:08 | 55.62683 | -119.21052 | 8939 ft | 120 kts | 305° |
| 2026-04-27 14:08 | 55.63172 | -119.22262 | 8937 ft | 120 kts | 305° |
| 2026-04-27 14:08 | 55.63661 | -119.23474 | 8938 ft | 120 kts | 304° |
| 2026-04-27 14:08 | 55.64142 | -119.24674 | 8942 ft | 120 kts | 306° |
| 2026-04-27 14:09 | 55.64627 | -119.25890 | 8938 ft | 120 kts | 305° |
| 2026-04-27 14:09 | 55.65112 | -119.27084 | 8938 ft | 120 kts | 305° |
| 2026-04-27 14:09 | 55.65601 | -119.28303 | 8935 ft | 120 kts | 305° |
| 2026-04-27 14:09 | 55.66085 | -119.29499 | 8937 ft | 120 kts | 306° |
| 2026-04-27 14:10 | 55.66578 | -119.30711 | 8935 ft | 120 kts | 306° |
| 2026-04-27 14:10 | 55.67067 | -119.31903 | 8937 ft | 120 kts | 306° |
| 2026-04-27 14:10 | 55.67549 | -119.33103 | 8935 ft | 120 kts | 306° |
| 2026-04-27 14:10 | 55.68034 | -119.34311 | 8938 ft | 120 kts | 304° |
| 2026-04-27 14:11 | 55.68516 | -119.35520 | 8940 ft | 120 kts | 305° |
| 2026-04-27 14:11 | 55.68998 | -119.36727 | 8944 ft | 119 kts | 304° |
| 2026-04-27 14:11 | 55.69476 | -119.37920 | 8946 ft | 120 kts | 306° |
| 2026-04-27 14:11 | 55.69961 | -119.39131 | 8951 ft | 119 kts | 305° |
| 2026-04-27 14:12 | 55.70444 | -119.40324 | 8946 ft | 120 kts | 304° |
| 2026-04-27 14:12 | 55.70931 | -119.41536 | 8948 ft | 120 kts | 305° |
| 2026-04-27 14:12 | 55.71411 | -119.42734 | 8944 ft | 120 kts | 305° |
| 2026-04-27 14:12 | 55.71899 | -119.43951 | 8944 ft | 120 kts | 305° |
| 2026-04-27 14:13 | 55.72382 | -119.45149 | 8945 ft | 120 kts | 305° |
| 2026-04-27 14:13 | 55.72869 | -119.46362 | 8943 ft | 120 kts | 306° |
| 2026-04-27 14:13 | 55.73353 | -119.47560 | 8945 ft | 120 kts | 304° |
| 2026-04-27 14:13 | 55.73843 | -119.48772 | 8945 ft | 120 kts | 306° |
| 2026-04-27 14:14 | 55.74317 | -119.49977 | 8943 ft | 120 kts | 303° |
| 2026-04-27 14:14 | 55.74802 | -119.51205 | 8944 ft | 120 kts | 304° |
| 2026-04-27 14:14 | 55.75286 | -119.52412 | 8944 ft | 120 kts | 306° |
| 2026-04-27 14:14 | 55.75770 | -119.53629 | 8944 ft | 120 kts | 305° |
| 2026-04-27 14:15 | 55.76251 | -119.54827 | 8945 ft | 120 kts | 305° |
| 2026-04-27 14:15 | 55.76736 | -119.56028 | 8943 ft | 120 kts | 306° |
| 2026-04-27 14:15 | 55.77224 | -119.57246 | 8943 ft | 120 kts | 304° |
| 2026-04-27 14:15 | 55.77704 | -119.58463 | 8942 ft | 120 kts | 305° |
| 2026-04-27 14:16 | 55.78187 | -119.59673 | 8939 ft | 120 kts | 306° |
| 2026-04-27 14:16 | 55.78675 | -119.60889 | 8937 ft | 120 kts | 306° |
| 2026-04-27 14:16 | 55.79156 | -119.62102 | 8933 ft | 121 kts | 305° |
| 2026-04-27 14:16 | 55.79633 | -119.63342 | 8932 ft | 121 kts | 305° |
| 2026-04-27 14:17 | 55.80109 | -119.64552 | 8931 ft | 121 kts | 306° |
| 2026-04-27 14:17 | 55.80602 | -119.65782 | 8932 ft | 121 kts | 304° |
| 2026-04-27 14:17 | 55.81076 | -119.66993 | 8933 ft | 121 kts | 304° |
| 2026-04-27 14:17 | 55.81564 | -119.68214 | 8934 ft | 121 kts | 304° |
| 2026-04-27 14:18 | 55.82045 | -119.69442 | 8934 ft | 121 kts | 304° |
| 2026-04-27 14:18 | 55.82523 | -119.70652 | 8934 ft | 121 kts | 304° |
| 2026-04-27 14:18 | 55.83015 | -119.71872 | 8934 ft | 121 kts | 304° |
| 2026-04-27 14:18 | 55.83499 | -119.73080 | 8937 ft | 121 kts | 304° |
| 2026-04-27 14:19 | 55.83985 | -119.74308 | 8938 ft | 121 kts | 303° |
| 2026-04-27 14:19 | 55.84460 | -119.75527 | 8941 ft | 121 kts | 304° |
| 2026-04-27 14:19 | 55.84943 | -119.76761 | 8940 ft | 121 kts | 304° |
| 2026-04-27 14:19 | 55.85422 | -119.77971 | 8939 ft | 121 kts | 305° |
| 2026-04-27 14:20 | 55.85912 | -119.79192 | 8937 ft | 121 kts | 304° |
| 2026-04-27 14:20 | 55.86398 | -119.80418 | 8939 ft | 121 kts | 304° |
| 2026-04-27 14:20 | 55.86881 | -119.81644 | 8939 ft | 121 kts | 305° |
| 2026-04-27 14:20 | 55.87360 | -119.82851 | 8941 ft | 120 kts | 306° |
| 2026-04-27 14:21 | 55.87846 | -119.84077 | 8938 ft | 121 kts | 303° |
| 2026-04-27 14:21 | 55.88330 | -119.85288 | 8940 ft | 120 kts | 306° |
| 2026-04-27 14:21 | 55.88812 | -119.86515 | 8942 ft | 120 kts | 304° |
| 2026-04-27 14:21 | 55.89283 | -119.87729 | 8942 ft | 120 kts | 304° |
| 2026-04-27 14:22 | 55.89766 | -119.88962 | 8941 ft | 121 kts | 305° |
| 2026-04-27 14:22 | 55.90245 | -119.90178 | 8943 ft | 120 kts | 303° |
| 2026-04-27 14:22 | 55.90731 | -119.91405 | 8941 ft | 121 kts | 305° |
| 2026-04-27 14:22 | 55.91212 | -119.92635 | 8942 ft | 121 kts | 304° |
| 2026-04-27 14:23 | 55.91680 | -119.93860 | 8940 ft | 121 kts | 304° |
| 2026-04-27 14:23 | 55.92158 | -119.95097 | 8945 ft | 120 kts | 306° |
| 2026-04-27 14:23 | 55.92647 | -119.96320 | 8943 ft | 121 kts | 306° |
| 2026-04-27 14:23 | 55.93130 | -119.97531 | 8944 ft | 120 kts | 304° |
| 2026-04-27 14:24 | 55.93615 | -119.98758 | 8945 ft | 120 kts | 304° |
| 2026-04-27 14:24 | 55.94104 | -119.99984 | 8941 ft | 121 kts | 304° |
| 2026-04-27 14:24 | 55.94580 | -120.01212 | 8944 ft | 120 kts | 304° |
| 2026-04-27 14:24 | 55.95054 | -120.02427 | 8943 ft | 121 kts | 303° |
| 2026-04-27 14:25 | 55.95538 | -120.03661 | 8945 ft | 120 kts | 305° |
| 2026-04-27 14:25 | 55.96021 | -120.04879 | 8947 ft | 120 kts | 303° |
| 2026-04-27 14:25 | 55.96500 | -120.06118 | 8945 ft | 121 kts | 305° |
| 2026-04-27 14:25 | 55.96973 | -120.07333 | 8947 ft | 120 kts | 304° |
| 2026-04-27 14:26 | 55.97451 | -120.08569 | 8944 ft | 121 kts | 303° |
| 2026-04-27 14:26 | 55.97923 | -120.09792 | 8944 ft | 121 kts | 304° |
| 2026-04-27 14:26 | 55.98405 | -120.11028 | 8946 ft | 120 kts | 304° |
| 2026-04-27 14:26 | 55.98884 | -120.12247 | 8945 ft | 120 kts | 304° |
| 2026-04-27 14:27 | 55.99363 | -120.13491 | 8950 ft | 120 kts | 304° |
| 2026-04-27 14:27 | 55.99837 | -120.14711 | 8945 ft | 120 kts | 303° |
| 2026-04-27 14:27 | 56.00312 | -120.15940 | 8945 ft | 120 kts | 305° |
| 2026-04-27 14:27 | 56.00795 | -120.17175 | 8946 ft | 120 kts | 305° |
| 2026-04-27 14:28 | 56.01270 | -120.18401 | 8947 ft | 120 kts | 304° |
| 2026-04-27 14:28 | 56.01743 | -120.19621 | 8944 ft | 120 kts | 305° |
| 2026-04-27 14:28 | 56.02223 | -120.20860 | 8944 ft | 121 kts | 304° |
| 2026-04-27 14:28 | 56.02702 | -120.22083 | 8945 ft | 120 kts | 305° |
| 2026-04-27 14:29 | 56.03181 | -120.23321 | 8945 ft | 120 kts | 305° |
| 2026-04-27 14:29 | 56.03653 | -120.24544 | 8947 ft | 120 kts | 303° |
| 2026-04-27 14:29 | 56.04129 | -120.25772 | 8943 ft | 120 kts | 305° |
| 2026-04-27 14:29 | 56.04608 | -120.26994 | 8944 ft | 120 kts | 304° |
| 2026-04-27 14:30 | 56.05086 | -120.28236 | 8942 ft | 120 kts | 305° |
| 2026-04-27 14:30 | 56.05561 | -120.29469 | 8946 ft | 120 kts | 304° |
| 2026-04-27 14:30 | 56.06038 | -120.30703 | 8945 ft | 120 kts | 304° |
| 2026-04-27 14:30 | 56.06511 | -120.31923 | 8943 ft | 120 kts | 305° |
| 2026-04-27 14:31 | 56.06989 | -120.33155 | 8944 ft | 120 kts | 304° |
| 2026-04-27 14:31 | 56.07470 | -120.34384 | 8941 ft | 120 kts | 304° |
| 2026-04-27 14:31 | 56.07946 | -120.35615 | 8940 ft | 120 kts | 304° |
| 2026-04-27 14:31 | 56.08413 | -120.36852 | 8941 ft | 120 kts | 304° |
| 2026-04-27 14:32 | 56.08884 | -120.38083 | 8943 ft | 120 kts | 304° |
| 2026-04-27 14:32 | 56.09368 | -120.39326 | 8942 ft | 121 kts | 305° |
| 2026-04-27 14:32 | 56.09847 | -120.40560 | 8941 ft | 121 kts | 305° |
| 2026-04-27 14:32 | 56.10326 | -120.41797 | 8939 ft | 121 kts | 305° |
| 2026-04-27 14:33 | 56.10805 | -120.43031 | 8940 ft | 121 kts | 305° |
| 2026-04-27 14:33 | 56.11282 | -120.44268 | 8942 ft | 120 kts | 304° |
| 2026-04-27 14:33 | 56.11755 | -120.45496 | 8945 ft | 120 kts | 304° |
| 2026-04-27 14:33 | 56.12230 | -120.46731 | 8953 ft | 120 kts | 304° |
| 2026-04-27 14:34 | 56.12710 | -120.47980 | 8956 ft | 121 kts | 305° |
| 2026-04-27 14:34 | 56.13187 | -120.49224 | 8954 ft | 122 kts | 305° |
| 2026-04-27 14:34 | 56.13665 | -120.50465 | 8953 ft | 122 kts | 305° |
| 2026-04-27 14:34 | 56.14149 | -120.51726 | 8952 ft | 122 kts | 305° |
| 2026-04-27 14:35 | 56.14629 | -120.52977 | 8951 ft | 122 kts | 305° |
| 2026-04-27 14:35 | 56.15114 | -120.54240 | 8950 ft | 122 kts | 305° |
| 2026-04-27 14:35 | 56.15593 | -120.55491 | 8949 ft | 122 kts | 305° |
| 2026-04-27 14:35 | 56.16067 | -120.56733 | 8957 ft | 121 kts | 305° |
| 2026-04-27 14:36 | 56.16544 | -120.57981 | 8948 ft | 122 kts | 305° |
| 2026-04-27 14:36 | 56.17026 | -120.59242 | 8947 ft | 122 kts | 305° |
| 2026-04-27 14:36 | 56.17505 | -120.60495 | 8947 ft | 122 kts | 305° |
| 2026-04-27 14:36 | 56.17982 | -120.61744 | 8948 ft | 122 kts | 305° |
| 2026-04-27 14:37 | 56.18459 | -120.62993 | 8946 ft | 122 kts | 305° |
| 2026-04-27 14:37 | 56.18936 | -120.64244 | 8946 ft | 122 kts | 305° |
| 2026-04-27 14:37 | 56.19415 | -120.65501 | 8946 ft | 122 kts | 304° |
| 2026-04-27 14:37 | 56.19892 | -120.66752 | 8946 ft | 122 kts | 304° |
| 2026-04-27 14:38 | 56.20368 | -120.68003 | 8945 ft | 122 kts | 304° |
| 2026-04-27 14:38 | 56.20847 | -120.69261 | 8945 ft | 122 kts | 304° |
| 2026-04-27 14:38 | 56.21322 | -120.70511 | 8944 ft | 122 kts | 304° |
| 2026-04-27 14:38 | 56.21798 | -120.71762 | 8944 ft | 122 kts | 304° |
| 2026-04-27 14:39 | 56.22278 | -120.73025 | 8943 ft | 122 kts | 304° |
| 2026-04-27 14:39 | 56.22754 | -120.74280 | 8943 ft | 121 kts | 304° |
| 2026-04-27 14:39 | 56.23228 | -120.75528 | 8944 ft | 121 kts | 304° |
| 2026-04-27 14:39 | 56.23702 | -120.76778 | 8945 ft | 122 kts | 304° |
| 2026-04-27 14:40 | 56.24184 | -120.78048 | 8945 ft | 122 kts | 304° |
| 2026-04-27 14:40 | 56.24353 | -120.78493 | 8946 ft | 122 kts | 304° |
| 2026-04-27 14:40 | 56.24826 | -120.79742 | 8949 ft | 121 kts | 304° |
| 2026-04-27 14:40 | 56.25302 | -120.80997 | 8947 ft | 121 kts | 304° |
| 2026-04-27 14:41 | 56.25775 | -120.82247 | 8947 ft | 121 kts | 304° |
| 2026-04-27 14:41 | 56.26256 | -120.83518 | 8947 ft | 121 kts | 304° |
| 2026-04-27 14:41 | 56.26733 | -120.84780 | 8947 ft | 121 kts | 304° |
| 2026-04-27 14:41 | 56.27208 | -120.86038 | 8970 ft | 120 kts | 304° |
| 2026-04-27 14:42 | 56.27671 | -120.87270 | 8991 ft | 119 kts | 304° |
| 2026-04-27 14:42 | 56.28140 | -120.88517 | 8995 ft | 120 kts | 304° |
| 2026-04-27 14:42 | 56.28614 | -120.89767 | 8995 ft | 121 kts | 305° |
| 2026-04-27 14:42 | 56.29097 | -120.91007 | 8997 ft | 122 kts | 305° |
| 2026-04-27 14:43 | 56.29589 | -120.92269 | 8997 ft | 122 kts | 305° |
| 2026-04-27 14:43 | 56.30078 | -120.93521 | 8998 ft | 123 kts | 305° |
| 2026-04-27 14:43 | 56.30564 | -120.94770 | 8998 ft | 123 kts | 305° |
| 2026-04-27 14:43 | 56.31056 | -120.96034 | 8995 ft | 123 kts | 305° |
| 2026-04-27 14:44 | 56.31544 | -120.97289 | 8994 ft | 122 kts | 305° |
| 2026-04-27 14:44 | 56.32032 | -120.98545 | 8994 ft | 122 kts | 305° |
| 2026-04-27 14:44 | 56.32516 | -120.99794 | 8994 ft | 122 kts | 305° |
| 2026-04-27 14:44 | 56.33000 | -121.01042 | 8994 ft | 122 kts | 305° |
| 2026-04-27 14:45 | 56.33484 | -121.02292 | 8994 ft | 122 kts | 305° |
| 2026-04-27 14:45 | 56.33970 | -121.03546 | 8994 ft | 122 kts | 305° |
| 2026-04-27 14:45 | 56.34460 | -121.04812 | 8994 ft | 122 kts | 305° |
| 2026-04-27 14:45 | 56.34945 | -121.06065 | 8994 ft | 122 kts | 305° |
| 2026-04-27 14:46 | 56.35426 | -121.07308 | 8994 ft | 122 kts | 305° |
| 2026-04-27 14:46 | 56.35910 | -121.08562 | 9001 ft | 121 kts | 305° |
| 2026-04-27 14:46 | 56.36396 | -121.09821 | 8994 ft | 122 kts | 305° |
| 2026-04-27 14:46 | 56.36882 | -121.11079 | 8993 ft | 122 kts | 305° |
| 2026-04-27 14:47 | 56.37368 | -121.12338 | 8992 ft | 122 kts | 305° |
| 2026-04-27 14:47 | 56.37850 | -121.13587 | 8996 ft | 122 kts | 305° |
| 2026-04-27 14:47 | 56.38335 | -121.14846 | 8992 ft | 122 kts | 305° |
| 2026-04-27 14:47 | 56.38820 | -121.16105 | 8991 ft | 122 kts | 305° |
| 2026-04-27 14:48 | 56.39302 | -121.17356 | 8991 ft | 122 kts | 305° |
| 2026-04-27 14:48 | 56.40270 | -121.19870 | 8990 ft | 122 kts | 305° |
| 2026-04-27 14:48 | 56.40752 | -121.21123 | 8989 ft | 122 kts | 305° |
| 2026-04-27 14:49 | 56.41233 | -121.22375 | 8989 ft | 122 kts | 305° |
| 2026-04-27 14:49 | 56.41718 | -121.23640 | 8988 ft | 122 kts | 305° |
| 2026-04-27 14:49 | 56.42199 | -121.24890 | 8988 ft | 122 kts | 305° |
| 2026-04-27 14:49 | 56.42683 | -121.26153 | 8988 ft | 122 kts | 305° |
| 2026-04-27 14:50 | 56.43167 | -121.27415 | 8988 ft | 122 kts | 305° |
| 2026-04-27 14:50 | 56.43645 | -121.28661 | 8988 ft | 122 kts | 305° |
| 2026-04-27 14:50 | 56.44129 | -121.29925 | 8988 ft | 122 kts | 305° |
| 2026-04-27 14:50 | 56.44606 | -121.31171 | 8987 ft | 122 kts | 305° |
| 2026-04-27 14:51 | 56.45087 | -121.32429 | 8987 ft | 122 kts | 305° |
| 2026-04-27 14:51 | 56.45571 | -121.33694 | 8987 ft | 122 kts | 305° |
| 2026-04-27 14:51 | 56.46054 | -121.34956 | 8987 ft | 122 kts | 306° |
| 2026-04-27 14:51 | 56.46376 | -121.35797 | 8987 ft | 122 kts | 305° |
| 2026-04-27 14:52 | 56.47013 | -121.37467 | 8988 ft | 122 kts | 306° |
| 2026-04-27 14:52 | 56.47495 | -121.38729 | 8987 ft | 122 kts | 306° |
| 2026-04-27 14:52 | 56.47971 | -121.39977 | 8987 ft | 122 kts | 306° |
| 2026-04-27 14:52 | 56.48455 | -121.41244 | 8987 ft | 122 kts | 305° |
| 2026-04-27 14:53 | 56.48936 | -121.42506 | 8987 ft | 122 kts | 305° |
| 2026-04-27 14:53 | 56.49413 | -121.43758 | 8987 ft | 122 kts | 305° |
| 2026-04-27 14:53 | 56.49891 | -121.45014 | 8987 ft | 121 kts | 306° |
| 2026-04-27 14:53 | 56.50374 | -121.46284 | 8988 ft | 122 kts | 306° |
| 2026-04-27 14:54 | 56.50852 | -121.47539 | 8988 ft | 121 kts | 306° |
| 2026-04-27 14:54 | 56.51326 | -121.48787 | 8988 ft | 121 kts | 306° |
| 2026-04-27 14:54 | 56.51808 | -121.50056 | 8988 ft | 121 kts | 305° |
| 2026-04-27 14:54 | 56.52284 | -121.51308 | 8988 ft | 121 kts | 306° |
| 2026-04-27 14:55 | 56.52768 | -121.52582 | 8992 ft | 121 kts | 305° |
| 2026-04-27 14:55 | 56.53244 | -121.53838 | 8989 ft | 121 kts | 306° |
| 2026-04-27 14:55 | 56.53720 | -121.55093 | 8989 ft | 121 kts | 306° |
| 2026-04-27 14:55 | 56.54198 | -121.56353 | 9002 ft | 122 kts | 306° |
| 2026-04-27 14:56 | 56.54686 | -121.57639 | 9003 ft | 123 kts | 306° |
| 2026-04-27 14:56 | 56.55174 | -121.58921 | 8999 ft | 124 kts | 306° |
| 2026-04-27 14:56 | 56.55665 | -121.60216 | 8995 ft | 125 kts | 306° |
| 2026-04-27 14:56 | 56.56157 | -121.61511 | 8978 ft | 124 kts | 306° |
| 2026-04-27 14:57 | 56.56641 | -121.62791 | 8972 ft | 123 kts | 306° |
| 2026-04-27 14:57 | 56.57124 | -121.64072 | 8972 ft | 122 kts | 306° |
| 2026-04-27 14:57 | 56.57600 | -121.65334 | 8973 ft | 122 kts | 304° |
| 2026-04-27 14:57 | 56.58079 | -121.66611 | 8983 ft | 121 kts | 304° |
| 2026-04-27 14:58 | 56.58553 | -121.67870 | 8975 ft | 122 kts | 304° |
| 2026-04-27 14:58 | 56.59029 | -121.69134 | 8975 ft | 122 kts | 304° |
| 2026-04-27 14:58 | 56.59510 | -121.70412 | 8976 ft | 122 kts | 304° |
| 2026-04-27 14:58 | 56.59982 | -121.71667 | 8976 ft | 122 kts | 304° |
| 2026-04-27 14:59 | 56.60461 | -121.72940 | 8976 ft | 122 kts | 304° |
| 2026-04-27 14:59 | 56.60940 | -121.74214 | 8976 ft | 122 kts | 304° |
| 2026-04-27 14:59 | 56.61412 | -121.75471 | 8975 ft | 122 kts | 304° |
| 2026-04-27 14:59 | 56.61891 | -121.76745 | 8979 ft | 121 kts | 304° |
| 2026-04-27 15:00 | 56.62362 | -121.78000 | 8974 ft | 122 kts | 304° |
| 2026-04-27 15:00 | 56.62841 | -121.79275 | 8973 ft | 122 kts | 304° |
| 2026-04-27 15:00 | 56.63319 | -121.80549 | 8972 ft | 121 kts | 304° |
| 2026-04-27 15:00 | 56.63791 | -121.81806 | 8971 ft | 121 kts | 304° |
| 2026-04-27 15:01 | 56.64269 | -121.83081 | 8970 ft | 121 kts | 304° |
| 2026-04-27 15:01 | 56.64746 | -121.84358 | 8972 ft | 121 kts | 304° |
| 2026-04-27 15:01 | 56.65217 | -121.85614 | 8969 ft | 121 kts | 304° |
| 2026-04-27 15:01 | 56.65696 | -121.86894 | 8968 ft | 121 kts | 304° |
| 2026-04-27 15:02 | 56.66169 | -121.88157 | 8967 ft | 121 kts | 304° |
| 2026-04-27 15:02 | 56.66643 | -121.89426 | 8966 ft | 121 kts | 304° |
| 2026-04-27 15:02 | 56.67113 | -121.90681 | 8980 ft | 120 kts | 305° |
| 2026-04-27 15:02 | 56.67580 | -121.91955 | 8951 ft | 121 kts | 304° |
| 2026-04-27 15:03 | 56.68047 | -121.93223 | 8952 ft | 119 kts | 305° |
| 2026-04-27 15:03 | 56.68504 | -121.94451 | 8958 ft | 117 kts | 304° |
| 2026-04-27 15:03 | 56.68958 | -121.95688 | 8965 ft | 116 kts | 304° |
| 2026-04-27 15:03 | 56.69411 | -121.96899 | 8985 ft | 116 kts | 305° |
| 2026-04-27 15:04 | 56.69867 | -121.98109 | 8991 ft | 117 kts | 306° |
| 2026-04-27 15:04 | 56.70340 | -121.99344 | 8992 ft | 119 kts | 305° |
| 2026-04-27 15:04 | 56.70804 | -122.00585 | 8999 ft | 120 kts | 305° |
| 2026-04-27 15:04 | 56.71267 | -122.01839 | 8997 ft | 120 kts | 304° |
| 2026-04-27 15:05 | 56.71739 | -122.03104 | 8993 ft | 120 kts | 306° |
| 2026-04-27 15:05 | 56.72212 | -122.04369 | 8992 ft | 120 kts | 305° |
| 2026-04-27 15:05 | 56.72666 | -122.05634 | 8996 ft | 119 kts | 304° |
| 2026-04-27 15:05 | 56.73128 | -122.06881 | 9000 ft | 119 kts | 305° |
| 2026-04-27 15:06 | 56.73592 | -122.08137 | 8998 ft | 120 kts | 304° |
| 2026-04-27 15:06 | 56.74060 | -122.09393 | 9000 ft | 120 kts | 305° |
| 2026-04-27 15:06 | 56.74530 | -122.10651 | 8998 ft | 120 kts | 306° |
| 2026-04-27 15:06 | 56.75003 | -122.11923 | 9002 ft | 120 kts | 305° |
| 2026-04-27 15:07 | 56.75471 | -122.13174 | 9003 ft | 120 kts | 304° |
| 2026-04-27 15:07 | 56.75939 | -122.14434 | 9000 ft | 120 kts | 306° |
| 2026-04-27 15:07 | 56.76352 | -122.15539 | 8972 ft | 122 kts | 305° |
| 2026-04-27 15:08 | 56.76763 | -122.16665 | 8968 ft | 121 kts | 305° |
| 2026-04-27 15:08 | 56.77230 | -122.17954 | 8965 ft | 121 kts | 304° |
| 2026-04-27 15:08 | 56.77692 | -122.19220 | 8966 ft | 120 kts | 305° |
| 2026-04-27 15:08 | 56.78163 | -122.20489 | 8966 ft | 120 kts | 305° |
| 2026-04-27 15:09 | 56.78631 | -122.21741 | 8966 ft | 120 kts | 305° |
| 2026-04-27 15:09 | 56.79100 | -122.23012 | 8967 ft | 120 kts | 305° |
| 2026-04-27 15:09 | 56.79562 | -122.24264 | 8967 ft | 120 kts | 305° |
| 2026-04-27 15:09 | 56.80034 | -122.25539 | 8965 ft | 120 kts | 304° |
| 2026-04-27 15:10 | 56.80495 | -122.26789 | 8966 ft | 120 kts | 305° |
| 2026-04-27 15:10 | 56.80962 | -122.28070 | 8961 ft | 120 kts | 305° |
| 2026-04-27 15:10 | 56.81426 | -122.29329 | 8963 ft | 120 kts | 305° |
| 2026-04-27 15:10 | 56.81889 | -122.30579 | 8965 ft | 120 kts | 304° |
| 2026-04-27 15:11 | 56.82359 | -122.31853 | 8962 ft | 120 kts | 307° |
| 2026-04-27 15:11 | 56.82824 | -122.33103 | 8962 ft | 120 kts | 305° |
| 2026-04-27 15:11 | 56.83287 | -122.34377 | 8959 ft | 120 kts | 306° |
| 2026-04-27 15:11 | 56.83743 | -122.35634 | 8962 ft | 120 kts | 305° |
| 2026-04-27 15:12 | 56.84204 | -122.36914 | 8960 ft | 120 kts | 306° |
| 2026-04-27 15:12 | 56.84666 | -122.38185 | 8962 ft | 120 kts | 305° |
| 2026-04-27 15:12 | 56.85122 | -122.39445 | 8964 ft | 120 kts | 305° |
| 2026-04-27 15:12 | 56.85587 | -122.40721 | 8961 ft | 120 kts | 306° |
| 2026-04-27 15:13 | 56.86062 | -122.41988 | 8960 ft | 120 kts | 306° |
| 2026-04-27 15:13 | 56.86525 | -122.43256 | 8962 ft | 120 kts | 305° |
| 2026-04-27 15:13 | 56.86985 | -122.44521 | 8960 ft | 121 kts | 306° |
| 2026-04-27 15:13 | 56.87454 | -122.45797 | 8962 ft | 120 kts | 305° |
| 2026-04-27 15:14 | 56.87923 | -122.47081 | 8960 ft | 121 kts | 306° |
| 2026-04-27 15:14 | 56.88390 | -122.48347 | 8961 ft | 120 kts | 306° |
| 2026-04-27 15:14 | 56.88845 | -122.49622 | 8961 ft | 121 kts | 305° |
| 2026-04-27 15:14 | 56.89314 | -122.50897 | 8960 ft | 121 kts | 306° |
| 2026-04-27 15:15 | 56.89780 | -122.52165 | 8961 ft | 121 kts | 306° |
| 2026-04-27 15:15 | 56.90250 | -122.53450 | 8961 ft | 121 kts | 306° |
| 2026-04-27 15:15 | 56.90712 | -122.54717 | 8961 ft | 121 kts | 305° |
| 2026-04-27 15:15 | 56.91175 | -122.56004 | 8961 ft | 121 kts | 305° |
| 2026-04-27 15:16 | 56.91642 | -122.57296 | 8960 ft | 121 kts | 305° |
| 2026-04-27 15:16 | 56.92104 | -122.58569 | 8963 ft | 121 kts | 306° |
| 2026-04-27 15:16 | 56.92571 | -122.59860 | 8963 ft | 121 kts | 306° |
| 2026-04-27 15:16 | 56.93035 | -122.61134 | 8964 ft | 121 kts | 305° |
| 2026-04-27 15:17 | 56.93498 | -122.62414 | 8964 ft | 121 kts | 305° |
| 2026-04-27 15:17 | 56.93966 | -122.63710 | 8962 ft | 121 kts | 305° |
| 2026-04-27 15:17 | 56.94434 | -122.64968 | 8963 ft | 121 kts | 306° |
| 2026-04-27 15:17 | 56.94902 | -122.66258 | 8965 ft | 121 kts | 305° |
| 2026-04-27 15:18 | 56.95369 | -122.67548 | 8964 ft | 121 kts | 304° |
| 2026-04-27 15:18 | 56.95831 | -122.68825 | 8962 ft | 121 kts | 306° |
| 2026-04-27 15:18 | 56.96303 | -122.70106 | 8965 ft | 121 kts | 306° |
| 2026-04-27 15:18 | 56.96765 | -122.71390 | 8965 ft | 121 kts | 304° |
| 2026-04-27 15:19 | 56.97219 | -122.72677 | 8966 ft | 121 kts | 303° |
| 2026-04-27 15:19 | 56.97684 | -122.73978 | 8966 ft | 121 kts | 304° |
| 2026-04-27 15:19 | 56.98149 | -122.75256 | 8965 ft | 121 kts | 304° |
| 2026-04-27 15:19 | 56.98614 | -122.76550 | 8962 ft | 121 kts | 304° |
| 2026-04-27 15:20 | 56.99077 | -122.77830 | 8962 ft | 121 kts | 304° |
| 2026-04-27 15:20 | 56.99542 | -122.79124 | 8962 ft | 121 kts | 303° |
| 2026-04-27 15:20 | 57.00001 | -122.80408 | 8965 ft | 121 kts | 305° |
| 2026-04-27 15:20 | 57.00458 | -122.81692 | 8964 ft | 121 kts | 304° |
| 2026-04-27 15:21 | 57.00919 | -122.82977 | 8963 ft | 121 kts | 305° |
| 2026-04-27 15:21 | 57.01385 | -122.84278 | 8964 ft | 121 kts | 305° |
| 2026-04-27 15:21 | 57.01844 | -122.85559 | 8964 ft | 121 kts | 304° |
| 2026-04-27 15:21 | 57.02313 | -122.86830 | 8961 ft | 121 kts | 305° |
| 2026-04-27 15:22 | 57.02774 | -122.88126 | 8961 ft | 121 kts | 304° |
| 2026-04-27 15:22 | 57.03238 | -122.89419 | 8964 ft | 121 kts | 305° |
| 2026-04-27 15:22 | 57.03699 | -122.90694 | 8962 ft | 121 kts | 305° |
| 2026-04-27 15:22 | 57.04167 | -122.91988 | 8963 ft | 121 kts | 304° |
| 2026-04-27 15:23 | 57.04624 | -122.93263 | 8963 ft | 121 kts | 305° |
| 2026-04-27 15:23 | 57.04796 | -122.93745 | 8961 ft | 121 kts | 303° |
| 2026-04-27 15:23 | 57.05263 | -122.95027 | 8960 ft | 121 kts | 305° |
| 2026-04-27 15:23 | 57.05722 | -122.96317 | 8962 ft | 121 kts | 304° |
| 2026-04-27 15:24 | 57.06183 | -122.97605 | 8961 ft | 121 kts | 305° |
| 2026-04-27 15:24 | 57.06634 | -122.98891 | 8964 ft | 121 kts | 305° |
| 2026-04-27 15:24 | 57.07100 | -123.00190 | 8962 ft | 121 kts | 305° |
| 2026-04-27 15:24 | 57.07549 | -123.01482 | 8965 ft | 121 kts | 304° |
| 2026-04-27 15:25 | 57.08008 | -123.02783 | 8965 ft | 121 kts | 305° |
| 2026-04-27 15:25 | 57.08474 | -123.04082 | 8964 ft | 121 kts | 304° |
| 2026-04-27 15:25 | 57.08927 | -123.05383 | 8965 ft | 121 kts | 304° |
| 2026-04-27 15:25 | 57.09391 | -123.06665 | 8964 ft | 121 kts | 305° |
| 2026-04-27 15:26 | 57.09858 | -123.07961 | 8964 ft | 121 kts | 305° |
| 2026-04-27 15:26 | 57.10321 | -123.09248 | 8964 ft | 121 kts | 304° |
| 2026-04-27 15:26 | 57.10777 | -123.10542 | 8966 ft | 121 kts | 304° |
| 2026-04-27 15:26 | 57.11232 | -123.11838 | 8965 ft | 121 kts | 306° |
| 2026-04-27 15:27 | 57.11693 | -123.13126 | 8965 ft | 121 kts | 305° |
| 2026-04-27 15:27 | 57.12158 | -123.14428 | 8964 ft | 121 kts | 306° |
| 2026-04-27 15:27 | 57.12618 | -123.15708 | 8967 ft | 121 kts | 306° |
| 2026-04-27 15:27 | 57.13085 | -123.17009 | 8966 ft | 121 kts | 304° |
| 2026-04-27 15:28 | 57.13537 | -123.18305 | 8969 ft | 121 kts | 303° |
| 2026-04-27 15:28 | 57.13995 | -123.19601 | 8968 ft | 121 kts | 304° |
| 2026-04-27 15:28 | 57.14461 | -123.20910 | 8968 ft | 121 kts | 305° |
| 2026-04-27 15:28 | 57.14919 | -123.22204 | 8968 ft | 121 kts | 305° |
| 2026-04-27 15:29 | 57.15383 | -123.23502 | 8970 ft | 121 kts | 305° |
| 2026-04-27 15:29 | 57.15838 | -123.24791 | 8968 ft | 121 kts | 305° |
| 2026-04-27 15:29 | 57.16301 | -123.26097 | 8968 ft | 121 kts | 306° |
| 2026-04-27 15:29 | 57.16762 | -123.27374 | 8967 ft | 121 kts | 304° |
| 2026-04-27 15:30 | 57.17066 | -123.28247 | 8967 ft | 121 kts | 306° |
| 2026-04-27 15:30 | 57.17674 | -123.29996 | 8970 ft | 121 kts | 305° |
| 2026-04-27 15:30 | 57.18127 | -123.31283 | 8968 ft | 121 kts | 306° |
| 2026-04-27 15:30 | 57.18589 | -123.32587 | 8968 ft | 121 kts | 304° |
| 2026-04-27 15:31 | 57.19038 | -123.33881 | 8969 ft | 120 kts | 306° |
| 2026-04-27 15:31 | 57.19496 | -123.35181 | 8969 ft | 120 kts | 304° |
| 2026-04-27 15:31 | 57.19949 | -123.36470 | 8968 ft | 120 kts | 304° |
| 2026-04-27 15:31 | 57.20402 | -123.37760 | 8968 ft | 120 kts | 305° |
| 2026-04-27 15:32 | 57.20865 | -123.39059 | 8968 ft | 120 kts | 306° |
| 2026-04-27 15:32 | 57.21322 | -123.40349 | 8966 ft | 121 kts | 306° |
| 2026-04-27 15:32 | 57.21782 | -123.41659 | 8970 ft | 121 kts | 306° |
| 2026-04-27 15:32 | 57.22237 | -123.42953 | 8972 ft | 121 kts | 306° |
| 2026-04-27 15:33 | 57.22697 | -123.44265 | 8973 ft | 121 kts | 306° |
| 2026-04-27 15:33 | 57.23153 | -123.45564 | 8974 ft | 121 kts | 306° |
| 2026-04-27 15:33 | 57.23609 | -123.46867 | 8974 ft | 121 kts | 306° |
| 2026-04-27 15:33 | 57.24073 | -123.48189 | 8975 ft | 121 kts | 306° |
| 2026-04-27 15:34 | 57.24529 | -123.49490 | 8975 ft | 121 kts | 306° |
| 2026-04-27 15:34 | 57.24989 | -123.50804 | 8973 ft | 122 kts | 306° |
| 2026-04-27 15:34 | 57.25444 | -123.52106 | 8970 ft | 121 kts | 306° |
| 2026-04-27 15:34 | 57.25905 | -123.53425 | 8968 ft | 121 kts | 306° |
| 2026-04-27 15:35 | 57.26357 | -123.54722 | 8967 ft | 121 kts | 306° |
| 2026-04-27 15:35 | 57.26666 | -123.55606 | 8966 ft | 121 kts | 306° |
| 2026-04-27 15:35 | 57.27274 | -123.57352 | 8967 ft | 121 kts | 306° |
| 2026-04-27 15:35 | 57.27728 | -123.58657 | 8970 ft | 121 kts | 306° |
| 2026-04-27 15:36 | 57.28182 | -123.59958 | 8971 ft | 121 kts | 306° |
| 2026-04-27 15:36 | 57.28637 | -123.61266 | 8972 ft | 121 kts | 306° |
| 2026-04-27 15:36 | 57.29094 | -123.62582 | 8974 ft | 121 kts | 306° |
| 2026-04-27 15:36 | 57.29548 | -123.63887 | 8976 ft | 121 kts | 306° |
| 2026-04-27 15:37 | 57.30001 | -123.65192 | 8977 ft | 121 kts | 305° |
| 2026-04-27 15:37 | 57.30455 | -123.66499 | 8980 ft | 121 kts | 305° |
| 2026-04-27 15:37 | 57.30910 | -123.67810 | 8981 ft | 121 kts | 305° |
| 2026-04-27 15:37 | 57.31363 | -123.69114 | 8983 ft | 121 kts | 305° |
| 2026-04-27 15:38 | 57.31760 | -123.70260 | 8985 ft | 121 kts | 305° |
| 2026-04-27 15:38 | 57.31899 | -123.70662 | 8985 ft | 121 kts | 305° |
| 2026-04-27 15:38 | 57.32349 | -123.71957 | 8974 ft | 108 kts | 307° |
| 2026-04-27 15:38 | 57.32705 | -123.73001 | 8965 ft | 92 kts | 300° |
| 2026-04-27 15:39 | 57.33026 | -123.74030 | 9007 ft | 93 kts | 300° |
| 2026-04-27 15:39 | 57.33352 | -123.75058 | 9049 ft | 93 kts | 301° |
| 2026-04-27 15:39 | 57.33689 | -123.76101 | 9097 ft | 93 kts | 302° |
| 2026-04-27 15:39 | 57.34025 | -123.77122 | 9145 ft | 93 kts | 302° |
| 2026-04-27 15:40 | 57.34250 | -123.77801 | 9177 ft | 93 kts | 302° |
| 2026-04-27 15:40 | 57.34710 | -123.79177 | 9240 ft | 93 kts | 302° |
| 2026-04-27 15:40 | 57.35052 | -123.80191 | 9288 ft | 93 kts | 303° |
| 2026-04-27 15:40 | 57.35400 | -123.81212 | 9345 ft | 92 kts | 304° |
| 2026-04-27 15:41 | 57.35746 | -123.82196 | 9404 ft | 92 kts | 303° |
| 2026-04-27 15:41 | 57.36098 | -123.83208 | 9450 ft | 92 kts | 303° |
| 2026-04-27 15:41 | 57.36450 | -123.84215 | 9500 ft | 93 kts | 304° |
| 2026-04-27 15:41 | 57.36795 | -123.85209 | 9549 ft | 93 kts | 303° |
| 2026-04-27 15:42 | 57.37135 | -123.86219 | 9594 ft | 93 kts | 303° |
| 2026-04-27 15:42 | 57.37478 | -123.87215 | 9652 ft | 91 kts | 305° |
| 2026-04-27 15:42 | 57.37804 | -123.88130 | 9580 ft | 86 kts | 302° |
| 2026-04-27 15:42 | 57.38103 | -123.89027 | 9677 ft | 81 kts | 303° |
| 2026-04-27 15:43 | 57.38397 | -123.89927 | 9721 ft | 81 kts | 299° |
| 2026-04-27 15:43 | 57.38692 | -123.90816 | 9782 ft | 81 kts | 301° |
| 2026-04-27 15:43 | 57.38996 | -123.91699 | 9818 ft | 82 kts | 301° |
| 2026-04-27 15:43 | 57.39306 | -123.92593 | 9877 ft | 81 kts | 306° |
| 2026-04-27 15:44 | 57.39617 | -123.93478 | 9919 ft | 84 kts | 303° |
| 2026-04-27 15:44 | 57.39925 | -123.94397 | 9976 ft | 83 kts | 302° |
| 2026-04-27 15:44 | 57.40240 | -123.95309 | 9978 ft | 87 kts | 305° |
| 2026-04-27 15:44 | 57.40581 | -123.96282 | 9994 ft | 91 kts | 304° |
| 2026-04-27 15:45 | 57.40933 | -123.97281 | 10005 ft | 96 kts | 304° |
| 2026-04-27 15:45 | 57.41317 | -123.98360 | 9986 ft | 103 kts | 304° |
| 2026-04-27 15:45 | 57.41718 | -123.99495 | 10002 ft | 108 kts | 305° |
| 2026-04-27 15:45 | 57.42144 | -124.00681 | 9993 ft | 113 kts | 306° |
| 2026-04-27 15:46 | 57.42590 | -124.01926 | 9981 ft | 117 kts | 305° |
| 2026-04-27 15:46 | 57.43037 | -124.03186 | 9989 ft | 118 kts | 305° |
| 2026-04-27 15:46 | 57.43492 | -124.04478 | 9972 ft | 121 kts | 305° |
| 2026-04-27 15:46 | 57.43949 | -124.05780 | 9980 ft | 121 kts | 306° |
| 2026-04-27 15:47 | 57.44408 | -124.07097 | 9953 ft | 121 kts | 306° |
| 2026-04-27 15:47 | 57.44709 | -124.07967 | 9982 ft | 119 kts | 306° |
| 2026-04-27 15:47 | 57.45301 | -124.09684 | 9994 ft | 120 kts | 306° |
| 2026-04-27 15:47 | 57.45757 | -124.11006 | 9996 ft | 122 kts | 305° |
| 2026-04-27 15:48 | 57.46214 | -124.12336 | 9990 ft | 122 kts | 305° |
| 2026-04-27 15:48 | 57.46485 | -124.13124 | 9994 ft | 121 kts | 304° |
| 2026-04-27 15:48 | 57.46798 | -124.14041 | 9994 ft | 121 kts | 304° |
| 2026-04-27 15:49 | 57.47689 | -124.16670 | 10003 ft | 121 kts | 305° |
| 2026-04-27 15:49 | 57.47990 | -124.17554 | 10013 ft | 120 kts | 306° |
| 2026-04-27 15:49 | 57.48432 | -124.18850 | 10011 ft | 121 kts | 306° |
| 2026-04-27 15:49 | 57.49036 | -124.20617 | 10015 ft | 121 kts | 306° |
| 2026-04-27 15:50 | 57.49489 | -124.21944 | 10021 ft | 121 kts | 306° |
| 2026-04-27 15:50 | 57.49941 | -124.23269 | 10022 ft | 121 kts | 306° |
| 2026-04-27 15:50 | 57.50388 | -124.24585 | 10020 ft | 121 kts | 306° |
| 2026-04-27 15:50 | 57.50689 | -124.25471 | 10009 ft | 122 kts | 306° |
| 2026-04-27 15:51 | 57.51145 | -124.26809 | 10008 ft | 122 kts | 306° |
| 2026-04-27 15:51 | 57.51746 | -124.28582 | 10014 ft | 122 kts | 306° |
| 2026-04-27 15:51 | 57.52198 | -124.29916 | 10017 ft | 122 kts | 306° |
| 2026-04-27 15:51 | 57.52648 | -124.31246 | 10002 ft | 123 kts | 306° |
| 2026-04-27 15:52 | 57.53099 | -124.32580 | 10017 ft | 122 kts | 306° |
| 2026-04-27 15:52 | 57.53548 | -124.33911 | 10011 ft | 122 kts | 306° |
| 2026-04-27 15:52 | 57.53999 | -124.35248 | 10006 ft | 123 kts | 306° |
| 2026-04-27 15:52 | 57.54299 | -124.36135 | 10015 ft | 122 kts | 306° |
| 2026-04-27 15:53 | 57.54900 | -124.37917 | 10010 ft | 122 kts | 306° |
| 2026-04-27 15:53 | 57.55203 | -124.38816 | 10010 ft | 122 kts | 306° |
| 2026-04-27 15:53 | 57.55652 | -124.40152 | 10000 ft | 122 kts | 306° |
| 2026-04-27 15:53 | 57.56252 | -124.41935 | 10005 ft | 122 kts | 306° |
| 2026-04-27 15:54 | 57.56707 | -124.43288 | 9991 ft | 123 kts | 306° |
| 2026-04-27 15:54 | 57.57152 | -124.44614 | 9998 ft | 122 kts | 306° |
| 2026-04-27 15:54 | 57.57455 | -124.45515 | 10003 ft | 121 kts | 306° |
| 2026-04-27 15:54 | 57.58049 | -124.47280 | 9992 ft | 123 kts | 306° |
| 2026-04-27 15:55 | 57.58351 | -124.48182 | 10003 ft | 122 kts | 306° |
| 2026-04-27 15:55 | 57.58805 | -124.49532 | 9999 ft | 123 kts | 306° |
| 2026-04-27 15:55 | 57.59408 | -124.51324 | 9992 ft | 123 kts | 306° |
| 2026-04-27 15:55 | 57.59709 | -124.52222 | 9991 ft | 123 kts | 306° |
| 2026-04-27 15:56 | 57.60157 | -124.53556 | 9992 ft | 122 kts | 306° |
| 2026-04-27 15:56 | 57.60609 | -124.54905 | 9988 ft | 122 kts | 306° |
| 2026-04-27 15:56 | 57.61205 | -124.56684 | 9989 ft | 122 kts | 306° |
| 2026-04-27 15:56 | 57.61506 | -124.57584 | 9989 ft | 122 kts | 306° |
| 2026-04-27 15:57 | 57.62098 | -124.59358 | 9989 ft | 122 kts | 306° |
| 2026-04-27 15:57 | 57.62399 | -124.60259 | 9989 ft | 122 kts | 306° |
| 2026-04-27 15:57 | 57.62843 | -124.61589 | 9990 ft | 122 kts | 306° |
| 2026-04-27 15:57 | 57.63438 | -124.63372 | 9990 ft | 122 kts | 306° |
| 2026-04-27 15:58 | 57.63739 | -124.64277 | 9990 ft | 121 kts | 306° |
| 2026-04-27 15:58 | 57.64332 | -124.66058 | 9995 ft | 121 kts | 305° |
| 2026-04-27 15:58 | 57.64630 | -124.66953 | 9993 ft | 122 kts | 305° |
| 2026-04-27 15:58 | 57.65073 | -124.68284 | 9992 ft | 122 kts | 305° |
| 2026-04-27 15:59 | 57.65523 | -124.69640 | 9995 ft | 122 kts | 305° |
| 2026-04-27 15:59 | 57.65968 | -124.70978 | 9993 ft | 122 kts | 305° |
| 2026-04-27 15:59 | 57.66410 | -124.72307 | 9993 ft | 122 kts | 305° |
| 2026-04-27 15:59 | 57.67009 | -124.74107 | 9994 ft | 122 kts | 305° |
| 2026-04-27 16:00 | 57.67302 | -124.74991 | 9994 ft | 122 kts | 304° |
| 2026-04-27 16:00 | 57.67751 | -124.76345 | 9996 ft | 122 kts | 304° |
| 2026-04-27 16:00 | 57.68351 | -124.78152 | 9992 ft | 123 kts | 304° |
| 2026-04-27 16:00 | 57.68651 | -124.79059 | 9991 ft | 123 kts | 304° |
| 2026-04-27 16:01 | 57.69097 | -124.80402 | 9987 ft | 123 kts | 304° |
| 2026-04-27 16:01 | 57.69694 | -124.82204 | 9987 ft | 123 kts | 304° |
| 2026-04-27 16:01 | 57.69996 | -124.83116 | 9982 ft | 123 kts | 304° |
| 2026-04-27 16:01 | 57.70594 | -124.84923 | 9978 ft | 123 kts | 304° |
| 2026-04-27 16:02 | 57.70894 | -124.85834 | 9989 ft | 122 kts | 304° |
| 2026-04-27 16:02 | 57.71258 | -124.86938 | 9975 ft | 123 kts | 304° |
| 2026-04-27 16:02 | 57.71484 | -124.87633 | 9974 ft | 123 kts | 304° |
| 2026-04-27 16:02 | 57.71930 | -124.88983 | 9971 ft | 122 kts | 306° |
| 2026-04-27 16:03 | 57.72380 | -124.90349 | 9970 ft | 122 kts | 304° |
| 2026-04-27 16:03 | 57.72822 | -124.91695 | 9969 ft | 122 kts | 304° |
| 2026-04-27 16:03 | 57.73272 | -124.93059 | 9966 ft | 123 kts | 304° |
| 2026-04-27 16:03 | 57.73717 | -124.94415 | 9966 ft | 123 kts | 304° |
| 2026-04-27 16:04 | 57.74167 | -124.95782 | 9965 ft | 123 kts | 304° |
| 2026-04-27 16:04 | 57.74615 | -124.97125 | 9965 ft | 123 kts | 304° |
| 2026-04-27 16:04 | 57.75062 | -124.98490 | 9963 ft | 123 kts | 302° |
| 2026-04-27 16:04 | 57.75500 | -124.99850 | 9959 ft | 123 kts | 303° |
| 2026-04-27 16:05 | 57.75945 | -125.01227 | 9956 ft | 123 kts | 304° |
| 2026-04-27 16:05 | 57.76382 | -125.02577 | 9958 ft | 122 kts | 304° |
| 2026-04-27 16:05 | 57.76831 | -125.03928 | 9954 ft | 122 kts | 304° |
| 2026-04-27 16:05 | 57.77278 | -125.05283 | 9955 ft | 122 kts | 305° |
| 2026-04-27 16:06 | 57.77720 | -125.06633 | 9957 ft | 122 kts | 302° |
| 2026-04-27 16:06 | 57.78157 | -125.07989 | 9958 ft | 121 kts | 304° |
| 2026-04-27 16:06 | 57.78601 | -125.09339 | 9955 ft | 122 kts | 304° |
| 2026-04-27 16:06 | 57.79044 | -125.10679 | 9957 ft | 122 kts | 303° |
| 2026-04-27 16:07 | 57.79492 | -125.12035 | 9958 ft | 122 kts | 304° |
| 2026-04-27 16:07 | 57.79939 | -125.13397 | 9958 ft | 122 kts | 304° |
| 2026-04-27 16:07 | 57.80372 | -125.14746 | 9961 ft | 122 kts | 303° |
| 2026-04-27 16:07 | 57.80814 | -125.16104 | 9960 ft | 122 kts | 303° |
| 2026-04-27 16:08 | 57.81255 | -125.17478 | 9959 ft | 122 kts | 303° |
| 2026-04-27 16:08 | 57.81702 | -125.18829 | 9957 ft | 122 kts | 303° |
| 2026-04-27 16:08 | 57.82146 | -125.20197 | 9960 ft | 122 kts | 303° |
| 2026-04-27 16:08 | 57.82594 | -125.21546 | 9961 ft | 122 kts | 304° |
| 2026-04-27 16:09 | 57.83045 | -125.22907 | 9962 ft | 122 kts | 304° |
| 2026-04-27 16:09 | 57.83931 | -125.25618 | 9962 ft | 123 kts | 303° |
| 2026-04-27 16:09 | 57.84375 | -125.27006 | 9964 ft | 122 kts | 303° |
| 2026-04-27 16:10 | 57.85258 | -125.29724 | 9962 ft | 123 kts | 303° |
| 2026-04-27 16:10 | 57.86157 | -125.32476 | 9960 ft | 123 kts | 303° |
| 2026-04-27 16:11 | 57.86597 | -125.33851 | 9961 ft | 123 kts | 303° |
| 2026-04-27 16:11 | 57.87477 | -125.36601 | 9963 ft | 123 kts | 303° |
| 2026-04-27 16:12 | 57.88366 | -125.39341 | 9960 ft | 123 kts | 303° |
| 2026-04-27 16:12 | 57.88810 | -125.40702 | 9958 ft | 123 kts | 304° |
| 2026-04-27 16:12 | 57.89687 | -125.43457 | 9958 ft | 123 kts | 303° |
| 2026-04-27 16:13 | 57.90129 | -125.44840 | 9955 ft | 123 kts | 304° |
| 2026-04-27 16:13 | 57.91018 | -125.47557 | 9958 ft | 122 kts | 302° |
| 2026-04-27 16:13 | 57.91457 | -125.48947 | 9956 ft | 123 kts | 303° |
| 2026-04-27 16:14 | 57.92331 | -125.51689 | 9951 ft | 123 kts | 302° |
| 2026-04-27 16:14 | 57.93218 | -125.54429 | 9952 ft | 122 kts | 303° |
| 2026-04-27 16:15 | 57.94093 | -125.57172 | 9948 ft | 123 kts | 303° |
| 2026-04-27 16:15 | 57.94979 | -125.59916 | 9942 ft | 123 kts | 302° |
| 2026-04-27 16:16 | 57.95863 | -125.62676 | 9942 ft | 123 kts | 303° |
| 2026-04-27 16:16 | 57.96753 | -125.65449 | 9942 ft | 123 kts | 301° |
| 2026-04-27 16:17 | 57.96905 | -125.68453 | 9928 ft | 124 kts | 238° |
| 2026-04-27 16:17 | 57.95363 | -125.69534 | 9940 ft | 125 kts | 180° |
| 2026-04-27 16:18 | 57.94183 | -125.69424 | 9943 ft | 126 kts | 179° |
| 2026-04-27 16:18 | 57.92430 | -125.69222 | 9945 ft | 126 kts | 178° |
| 2026-04-27 16:19 | 57.91553 | -125.69124 | 9942 ft | 126 kts | 177° |
| 2026-04-27 16:19 | 57.90670 | -125.69031 | 9943 ft | 126 kts | 180° |
| 2026-04-27 16:20 | 57.88030 | -125.68813 | 9940 ft | 127 kts | 180° |
| 2026-04-27 16:20 | 57.87127 | -125.68773 | 9701 ft | 135 kts | 181° |
| 2026-04-27 16:20 | 57.85225 | -125.68688 | 9224 ft | 137 kts | 182° |
| 2026-04-27 16:21 | 57.84278 | -125.68626 | 9038 ft | 134 kts | 180° |
| 2026-04-27 16:21 | 57.81523 | -125.68407 | 8492 ft | 131 kts | 179° |
| 2026-04-27 16:22 | 57.80621 | -125.68346 | 8311 ft | 131 kts | 179° |
| 2026-04-27 16:22 | 57.78810 | -125.68189 | 7948 ft | 130 kts | 180° |
| 2026-04-27 16:22 | 57.77910 | -125.68115 | 7767 ft | 130 kts | 179° |
| 2026-04-27 16:23 | 57.77015 | -125.68037 | 7583 ft | 129 kts | 179° |
| 2026-04-27 16:23 | 57.75230 | -125.67891 | 7353 ft | 124 kts | 179° |
| 2026-04-27 16:23 | 57.74381 | -125.67817 | 7349 ft | 121 kts | 178° |
| 2026-04-27 16:24 | 57.73536 | -125.67738 | 7352 ft | 120 kts | 178° |
| 2026-04-27 16:24 | 57.71886 | -125.67588 | 7350 ft | 119 kts | 179° |
| 2026-04-27 16:25 | 57.70226 | -125.67451 | 7353 ft | 118 kts | 179° |
| 2026-04-27 16:25 | 57.68518 | -125.67316 | 7182 ft | 126 kts | 180° |
| 2026-04-27 16:26 | 57.66737 | -125.67158 | 6972 ft | 128 kts | 180° |
| 2026-04-27 16:26 | 57.64952 | -125.67029 | 6760 ft | 128 kts | 179° |
| 2026-04-27 16:27 | 57.63171 | -125.66877 | 6546 ft | 128 kts | 180° |
| 2026-04-27 16:27 | 57.60504 | -125.66676 | 6224 ft | 127 kts | 179° |
| 2026-04-27 16:28 | 57.58752 | -125.66531 | 6005 ft | 126 kts | 179° |
| 2026-04-27 16:28 | 57.57049 | -125.66385 | 5957 ft | 118 kts | 179° |
| 2026-04-27 16:29 | 57.55061 | -125.66213 | 5952 ft | 116 kts | 179° |
| 2026-04-27 16:30 | 57.53531 | -125.66074 | 5955 ft | 115 kts | 178° |
| 2026-04-27 16:30 | 57.51930 | -125.65943 | 5953 ft | 115 kts | 178° |
| 2026-04-27 16:31 | 57.49368 | -125.65765 | 5406 ft | 126 kts | 180° |
| 2026-04-27 16:31 | 57.47657 | -125.65730 | 4862 ft | 123 kts | 177° |
| 2026-04-27 16:32 | 57.45977 | -125.65015 | 4080 ft | 126 kts | 152° |
| 2026-04-27 16:32 | 57.45221 | -125.64323 | 3929 ft | 120 kts | 164° |
| 2026-04-27 16:33 | 57.43881 | -125.64529 | 3672 ft | 115 kts | 253° |
| 2026-04-27 16:33 | 57.43610 | -125.65853 | 3640 ft | 107 kts | 246° |
| 2026-04-27 16:33 | 57.42980 | -125.66135 | 3293 ft | 120 kts | 124° |
| 2026-04-27 16:33 | 57.42834 | -125.64738 | 3070 ft | 115 kts | 117° |
| 2026-04-27 16:34 | 57.42266 | -125.64130 | 2998 ft | 98 kts | 213° |
| 2026-04-27 16:34 | 57.42307 | -125.65160 | 2903 ft | 95 kts | 320° |
| 2026-04-27 16:34 | 57.42838 | -125.65784 | 2847 ft | 96 kts | 332° |
| 2026-04-27 16:34 | 57.43338 | -125.65748 | 2827 ft | 92 kts | 72° |
| 2026-04-27 16:35 | 57.43361 | -125.64496 | 2529 ft | 95 kts | 94° |
| 2026-04-27 16:35 | 57.43297 | -125.63393 | 2499 ft | 73 kts | 102° |
| 2026-04-27 16:35 | 57.43087 | -125.62126 | 2464 ft | 25 kts | 125° |
| 2026-04-27 16:36 | 57.43027 | -125.61994 | 2463 ft | 1 kts | 140° |
| 2026-04-27 16:36 | 57.43026 | -125.61993 | 2463 ft | 0 kts | 139° |
| 2026-04-27 16:38 | 57.43006 | -125.61939 | 2463 ft | 20 kts | 131° |
| 2026-04-27 16:39 | 57.42817 | -125.61656 | 2460 ft | 46 kts | 152° |
| 2026-04-27 16:39 | 57.42801 | -125.61635 | 2453 ft | 13 kts | 304° |
| 2026-04-27 16:39 | 57.42807 | -125.61650 | 2458 ft | 9 kts | 306° |